<?xml version="1.0" encoding="UTF-8" standalone="no" ?>
<gpx xmlns="http://www.topografix.com/GPX/1/1" xmlns:xsi="http://www.w3.org/2001/XMLSchema-instance" xsi:schemaLocation="http://www.topografix.com/GPX/1/1 http://www.topografix.com/GPX/1/1/gpx.xsd" version="1.1" creator="VisuGPX - https://www.visugpx.com">
  <metadata>
    <name>Boucle ecluse Nicolleau</name>
    <desc><![CDATA[[b]Boucle[/b] au départ de l'écluse Nicolleau sur le canal de Nantes à Brest, à l'extrémité ouest du lac de Guerlédan. Passer sur l'autre rive par la passerelle de l'écluse. Suivre les berges du lac vers l'Est pendant environ 2 km puis monter dans le bois. Effectuer une boucle pour rejoindre l'écluse.
]]></desc>
  </metadata>
  <trk>
    <name><![CDATA[Tour Nicolleau-Quenouille Madame]]></name>
    <trkseg>
      <trkpt lat="48.20704" lon="-3.10917">
        <ele>39.55</ele>
        <time>2017-04-09T11:35:51Z</time>
      </trkpt>
      <trkpt lat="48.20704" lon="-3.10915">
        <ele>39.55</ele>
        <time>2017-04-09T11:35:52Z</time>
      </trkpt>
      <trkpt lat="48.20703" lon="-3.10895">
        <ele>40.03</ele>
        <time>2017-04-09T11:36:16Z</time>
      </trkpt>
      <trkpt lat="48.20702" lon="-3.10896">
        <ele>39.07</ele>
        <time>2017-04-09T11:36:17Z</time>
      </trkpt>
      <trkpt lat="48.20702" lon="-3.10896">
        <ele>40.51</ele>
        <time>2017-04-09T11:36:18Z</time>
      </trkpt>
      <trkpt lat="48.20707" lon="-3.10888">
        <ele>40.03</ele>
        <time>2017-04-09T11:36:34Z</time>
      </trkpt>
      <trkpt lat="48.20694" lon="-3.10902">
        <ele>40.99</ele>
        <time>2017-04-09T11:36:47Z</time>
      </trkpt>
      <trkpt lat="48.20681" lon="-3.10921">
        <ele>41.95</ele>
        <time>2017-04-09T11:37:05Z</time>
      </trkpt>
      <trkpt lat="48.20681" lon="-3.10922">
        <ele>41.95</ele>
        <time>2017-04-09T11:37:16Z</time>
      </trkpt>
      <trkpt lat="48.20683" lon="-3.10919">
        <ele>41.95</ele>
        <time>2017-04-09T11:37:19Z</time>
      </trkpt>
      <trkpt lat="48.20679" lon="-3.10923">
        <ele>41.95</ele>
        <time>2017-04-09T11:37:36Z</time>
      </trkpt>
      <trkpt lat="48.20674" lon="-3.10924">
        <ele>42.92</ele>
        <time>2017-04-09T11:37:58Z</time>
      </trkpt>
      <trkpt lat="48.20671" lon="-3.10928">
        <ele>42.92</ele>
        <time>2017-04-09T11:38:14Z</time>
      </trkpt>
      <trkpt lat="48.20668" lon="-3.10931">
        <ele>43.4</ele>
        <time>2017-04-09T11:38:32Z</time>
      </trkpt>
      <trkpt lat="48.20668" lon="-3.10931">
        <ele>43.88</ele>
        <time>2017-04-09T11:38:55Z</time>
      </trkpt>
      <trkpt lat="48.2067" lon="-3.10928">
        <ele>43.88</ele>
        <time>2017-04-09T11:38:58Z</time>
      </trkpt>
      <trkpt lat="48.20678" lon="-3.10911">
        <ele>45.32</ele>
        <time>2017-04-09T11:39:06Z</time>
      </trkpt>
      <trkpt lat="48.20675" lon="-3.10921">
        <ele>44.84</ele>
        <time>2017-04-09T11:39:17Z</time>
      </trkpt>
      <trkpt lat="48.2067" lon="-3.10934">
        <ele>45.32</ele>
        <time>2017-04-09T11:39:34Z</time>
      </trkpt>
      <trkpt lat="48.2067" lon="-3.10935">
        <ele>45.8</ele>
        <time>2017-04-09T11:39:38Z</time>
      </trkpt>
      <trkpt lat="48.20668" lon="-3.10936">
        <ele>45.8</ele>
        <time>2017-04-09T11:39:50Z</time>
      </trkpt>
      <trkpt lat="48.20668" lon="-3.10935">
        <ele>46.28</ele>
        <time>2017-04-09T11:39:51Z</time>
      </trkpt>
      <trkpt lat="48.20668" lon="-3.10933">
        <ele>46.28</ele>
        <time>2017-04-09T11:39:53Z</time>
      </trkpt>
      <trkpt lat="48.20666" lon="-3.10933">
        <ele>46.76</ele>
        <time>2017-04-09T11:40:07Z</time>
      </trkpt>
      <trkpt lat="48.20665" lon="-3.10934">
        <ele>47.72</ele>
        <time>2017-04-09T11:40:21Z</time>
      </trkpt>
      <trkpt lat="48.20662" lon="-3.10936">
        <ele>47.72</ele>
        <time>2017-04-09T11:40:39Z</time>
      </trkpt>
      <trkpt lat="48.20663" lon="-3.1094">
        <ele>48.2</ele>
        <time>2017-04-09T11:40:53Z</time>
      </trkpt>
      <trkpt lat="48.20663" lon="-3.10939">
        <ele>49.16</ele>
        <time>2017-04-09T11:41:18Z</time>
      </trkpt>
      <trkpt lat="48.20666" lon="-3.10934">
        <ele>49.65</ele>
        <time>2017-04-09T11:41:38Z</time>
      </trkpt>
      <trkpt lat="48.2067" lon="-3.10934">
        <ele>50.13</ele>
        <time>2017-04-09T11:41:55Z</time>
      </trkpt>
      <trkpt lat="48.2067" lon="-3.10934">
        <ele>51.09</ele>
        <time>2017-04-09T11:42:14Z</time>
      </trkpt>
      <trkpt lat="48.20668" lon="-3.10934">
        <ele>51.57</ele>
        <time>2017-04-09T11:42:29Z</time>
      </trkpt>
      <trkpt lat="48.20674" lon="-3.10926">
        <ele>52.05</ele>
        <time>2017-04-09T11:42:45Z</time>
      </trkpt>
      <trkpt lat="48.20677" lon="-3.10924">
        <ele>52.05</ele>
        <time>2017-04-09T11:43:06Z</time>
      </trkpt>
      <trkpt lat="48.20679" lon="-3.10928">
        <ele>53.97</ele>
        <time>2017-04-09T11:43:25Z</time>
      </trkpt>
      <trkpt lat="48.20681" lon="-3.10926">
        <ele>54.45</ele>
        <time>2017-04-09T11:43:44Z</time>
      </trkpt>
      <trkpt lat="48.20682" lon="-3.10926">
        <ele>57.34</ele>
        <time>2017-04-09T11:43:51Z</time>
      </trkpt>
      <trkpt lat="48.20684" lon="-3.10927">
        <ele>54.45</ele>
        <time>2017-04-09T11:44:10Z</time>
      </trkpt>
      <trkpt lat="48.2069" lon="-3.10915">
        <ele>56.86</ele>
        <time>2017-04-09T11:44:23Z</time>
      </trkpt>
      <trkpt lat="48.20691" lon="-3.10908">
        <ele>60.22</ele>
        <time>2017-04-09T11:44:40Z</time>
      </trkpt>
      <trkpt lat="48.20693" lon="-3.10898">
        <ele>62.14</ele>
        <time>2017-04-09T11:44:54Z</time>
      </trkpt>
      <trkpt lat="48.20696" lon="-3.10891">
        <ele>65.51</ele>
        <time>2017-04-09T11:45:14Z</time>
      </trkpt>
      <trkpt lat="48.20696" lon="-3.10893">
        <ele>65.99</ele>
        <time>2017-04-09T11:45:33Z</time>
      </trkpt>
      <trkpt lat="48.20695" lon="-3.10889">
        <ele>69.35</ele>
        <time>2017-04-09T11:45:50Z</time>
      </trkpt>
      <trkpt lat="48.2069" lon="-3.10882">
        <ele>71.76</ele>
        <time>2017-04-09T11:46:04Z</time>
      </trkpt>
      <trkpt lat="48.20691" lon="-3.10877">
        <ele>74.16</ele>
        <time>2017-04-09T11:46:20Z</time>
      </trkpt>
      <trkpt lat="48.20689" lon="-3.10868">
        <ele>76.08</ele>
        <time>2017-04-09T11:46:35Z</time>
      </trkpt>
      <trkpt lat="48.20694" lon="-3.10855">
        <ele>75.12</ele>
        <time>2017-04-09T11:46:51Z</time>
      </trkpt>
      <trkpt lat="48.20696" lon="-3.10842">
        <ele>73.68</ele>
        <time>2017-04-09T11:47:05Z</time>
      </trkpt>
      <trkpt lat="48.20693" lon="-3.1083">
        <ele>71.27</ele>
        <time>2017-04-09T11:47:19Z</time>
      </trkpt>
      <trkpt lat="48.20693" lon="-3.1082">
        <ele>69.83</ele>
        <time>2017-04-09T11:47:34Z</time>
      </trkpt>
      <trkpt lat="48.20696" lon="-3.10795">
        <ele>68.39</ele>
        <time>2017-04-09T11:47:48Z</time>
      </trkpt>
      <trkpt lat="48.20693" lon="-3.10774">
        <ele>66.95</ele>
        <time>2017-04-09T11:48:00Z</time>
      </trkpt>
      <trkpt lat="48.2069" lon="-3.1077">
        <ele>66.95</ele>
        <time>2017-04-09T11:48:03Z</time>
      </trkpt>
      <trkpt lat="48.20682" lon="-3.10761">
        <ele>66.95</ele>
        <time>2017-04-09T11:48:16Z</time>
      </trkpt>
      <trkpt lat="48.20675" lon="-3.10764">
        <ele>66.95</ele>
        <time>2017-04-09T11:48:31Z</time>
      </trkpt>
      <trkpt lat="48.20669" lon="-3.10764">
        <ele>66.95</ele>
        <time>2017-04-09T11:48:37Z</time>
      </trkpt>
      <trkpt lat="48.20658" lon="-3.10756">
        <ele>66.95</ele>
        <time>2017-04-09T11:48:50Z</time>
      </trkpt>
      <trkpt lat="48.2065" lon="-3.10751">
        <ele>65.99</ele>
        <time>2017-04-09T11:49:05Z</time>
      </trkpt>
      <trkpt lat="48.20638" lon="-3.10751">
        <ele>66.47</ele>
        <time>2017-04-09T11:49:21Z</time>
      </trkpt>
      <trkpt lat="48.20625" lon="-3.10747">
        <ele>66.47</ele>
        <time>2017-04-09T11:49:34Z</time>
      </trkpt>
      <trkpt lat="48.20611" lon="-3.1074">
        <ele>66.47</ele>
        <time>2017-04-09T11:49:49Z</time>
      </trkpt>
      <trkpt lat="48.20603" lon="-3.10736">
        <ele>65.99</ele>
        <time>2017-04-09T11:49:58Z</time>
      </trkpt>
      <trkpt lat="48.20599" lon="-3.10736">
        <ele>65.99</ele>
        <time>2017-04-09T11:50:01Z</time>
      </trkpt>
      <trkpt lat="48.20595" lon="-3.10734">
        <ele>66.95</ele>
        <time>2017-04-09T11:50:17Z</time>
      </trkpt>
      <trkpt lat="48.20588" lon="-3.10736">
        <ele>66.95</ele>
        <time>2017-04-09T11:50:30Z</time>
      </trkpt>
      <trkpt lat="48.20577" lon="-3.10734">
        <ele>66.95</ele>
        <time>2017-04-09T11:50:44Z</time>
      </trkpt>
      <trkpt lat="48.20561" lon="-3.10727">
        <ele>67.91</ele>
        <time>2017-04-09T11:50:58Z</time>
      </trkpt>
      <trkpt lat="48.20547" lon="-3.1072">
        <ele>67.91</ele>
        <time>2017-04-09T11:51:13Z</time>
      </trkpt>
      <trkpt lat="48.20539" lon="-3.10716">
        <ele>68.39</ele>
        <time>2017-04-09T11:51:26Z</time>
      </trkpt>
      <trkpt lat="48.20528" lon="-3.10701">
        <ele>68.87</ele>
        <time>2017-04-09T11:51:43Z</time>
      </trkpt>
      <trkpt lat="48.20518" lon="-3.10691">
        <ele>68.87</ele>
        <time>2017-04-09T11:51:58Z</time>
      </trkpt>
      <trkpt lat="48.20511" lon="-3.10676">
        <ele>68.87</ele>
        <time>2017-04-09T11:52:13Z</time>
      </trkpt>
      <trkpt lat="48.20506" lon="-3.10668">
        <ele>69.35</ele>
        <time>2017-04-09T11:52:28Z</time>
      </trkpt>
      <trkpt lat="48.20493" lon="-3.10643">
        <ele>70.79</ele>
        <time>2017-04-09T11:52:43Z</time>
      </trkpt>
      <trkpt lat="48.20484" lon="-3.10619">
        <ele>71.27</ele>
        <time>2017-04-09T11:52:58Z</time>
      </trkpt>
      <trkpt lat="48.20482" lon="-3.10595">
        <ele>70.79</ele>
        <time>2017-04-09T11:53:15Z</time>
      </trkpt>
      <trkpt lat="48.20481" lon="-3.1057">
        <ele>71.27</ele>
        <time>2017-04-09T11:53:31Z</time>
      </trkpt>
      <trkpt lat="48.20484" lon="-3.10535">
        <ele>70.79</ele>
        <time>2017-04-09T11:53:47Z</time>
      </trkpt>
      <trkpt lat="48.20484" lon="-3.10516">
        <ele>72.24</ele>
        <time>2017-04-09T11:54:04Z</time>
      </trkpt>
      <trkpt lat="48.20482" lon="-3.10498">
        <ele>73.2</ele>
        <time>2017-04-09T11:54:19Z</time>
      </trkpt>
      <trkpt lat="48.20485" lon="-3.10478">
        <ele>71.76</ele>
        <time>2017-04-09T11:54:36Z</time>
      </trkpt>
      <trkpt lat="48.20488" lon="-3.1047">
        <ele>71.76</ele>
        <time>2017-04-09T11:54:53Z</time>
      </trkpt>
      <trkpt lat="48.20495" lon="-3.10461">
        <ele>73.2</ele>
        <time>2017-04-09T11:55:14Z</time>
      </trkpt>
      <trkpt lat="48.20498" lon="-3.10445">
        <ele>73.68</ele>
        <time>2017-04-09T11:55:30Z</time>
      </trkpt>
      <trkpt lat="48.205" lon="-3.10436">
        <ele>74.16</ele>
        <time>2017-04-09T11:55:46Z</time>
      </trkpt>
      <trkpt lat="48.20501" lon="-3.10425">
        <ele>75.12</ele>
        <time>2017-04-09T11:56:03Z</time>
      </trkpt>
      <trkpt lat="48.205" lon="-3.10413">
        <ele>74.64</ele>
        <time>2017-04-09T11:56:20Z</time>
      </trkpt>
      <trkpt lat="48.20503" lon="-3.10403">
        <ele>77.04</ele>
        <time>2017-04-09T11:56:32Z</time>
      </trkpt>
      <trkpt lat="48.20503" lon="-3.10388">
        <ele>78</ele>
        <time>2017-04-09T11:56:48Z</time>
      </trkpt>
      <trkpt lat="48.20506" lon="-3.10377">
        <ele>77.52</ele>
        <time>2017-04-09T11:57:03Z</time>
      </trkpt>
      <trkpt lat="48.20507" lon="-3.10354">
        <ele>77.52</ele>
        <time>2017-04-09T11:57:20Z</time>
      </trkpt>
      <trkpt lat="48.20509" lon="-3.10334">
        <ele>77.52</ele>
        <time>2017-04-09T11:57:35Z</time>
      </trkpt>
      <trkpt lat="48.20511" lon="-3.10319">
        <ele>77.52</ele>
        <time>2017-04-09T11:57:49Z</time>
      </trkpt>
      <trkpt lat="48.20513" lon="-3.10313">
        <ele>77.04</ele>
        <time>2017-04-09T11:58:04Z</time>
      </trkpt>
      <trkpt lat="48.20516" lon="-3.103">
        <ele>78.48</ele>
        <time>2017-04-09T11:58:19Z</time>
      </trkpt>
      <trkpt lat="48.20515" lon="-3.10285">
        <ele>78.97</ele>
        <time>2017-04-09T11:58:35Z</time>
      </trkpt>
      <trkpt lat="48.20516" lon="-3.10269">
        <ele>79.93</ele>
        <time>2017-04-09T11:58:47Z</time>
      </trkpt>
      <trkpt lat="48.20515" lon="-3.10253">
        <ele>81.85</ele>
        <time>2017-04-09T11:59:04Z</time>
      </trkpt>
      <trkpt lat="48.2052" lon="-3.10238">
        <ele>80.41</ele>
        <time>2017-04-09T11:59:17Z</time>
      </trkpt>
      <trkpt lat="48.20525" lon="-3.10227">
        <ele>79.93</ele>
        <time>2017-04-09T11:59:29Z</time>
      </trkpt>
      <trkpt lat="48.20527" lon="-3.1022">
        <ele>79.93</ele>
        <time>2017-04-09T11:59:40Z</time>
      </trkpt>
      <trkpt lat="48.20531" lon="-3.10211">
        <ele>80.89</ele>
        <time>2017-04-09T12:00:02Z</time>
      </trkpt>
      <trkpt lat="48.20531" lon="-3.10191">
        <ele>82.33</ele>
        <time>2017-04-09T12:00:18Z</time>
      </trkpt>
      <trkpt lat="48.20532" lon="-3.10181">
        <ele>84.73</ele>
        <time>2017-04-09T12:00:31Z</time>
      </trkpt>
      <trkpt lat="48.20537" lon="-3.10159">
        <ele>86.18</ele>
        <time>2017-04-09T12:00:47Z</time>
      </trkpt>
      <trkpt lat="48.20534" lon="-3.10151">
        <ele>85.21</ele>
        <time>2017-04-09T12:01:01Z</time>
      </trkpt>
      <trkpt lat="48.20537" lon="-3.10138">
        <ele>82.33</ele>
        <time>2017-04-09T12:01:15Z</time>
      </trkpt>
      <trkpt lat="48.20538" lon="-3.10123">
        <ele>81.37</ele>
        <time>2017-04-09T12:01:30Z</time>
      </trkpt>
      <trkpt lat="48.2054" lon="-3.10108">
        <ele>81.85</ele>
        <time>2017-04-09T12:01:43Z</time>
      </trkpt>
      <trkpt lat="48.20552" lon="-3.10095">
        <ele>82.33</ele>
        <time>2017-04-09T12:01:58Z</time>
      </trkpt>
      <trkpt lat="48.20554" lon="-3.10096">
        <ele>82.81</ele>
        <time>2017-04-09T12:02:18Z</time>
      </trkpt>
      <trkpt lat="48.20558" lon="-3.10095">
        <ele>82.81</ele>
        <time>2017-04-09T12:02:46Z</time>
      </trkpt>
      <trkpt lat="48.20561" lon="-3.10092">
        <ele>83.77</ele>
        <time>2017-04-09T12:03:09Z</time>
      </trkpt>
      <trkpt lat="48.20563" lon="-3.10094">
        <ele>84.25</ele>
        <time>2017-04-09T12:03:32Z</time>
      </trkpt>
      <trkpt lat="48.20563" lon="-3.10093">
        <ele>85.21</ele>
        <time>2017-04-09T12:03:58Z</time>
      </trkpt>
      <trkpt lat="48.20563" lon="-3.10088">
        <ele>85.69</ele>
        <time>2017-04-09T12:04:17Z</time>
      </trkpt>
      <trkpt lat="48.20565" lon="-3.10078">
        <ele>85.69</ele>
        <time>2017-04-09T12:04:31Z</time>
      </trkpt>
      <trkpt lat="48.20573" lon="-3.10063">
        <ele>87.14</ele>
        <time>2017-04-09T12:04:46Z</time>
      </trkpt>
      <trkpt lat="48.20573" lon="-3.1006">
        <ele>87.14</ele>
        <time>2017-04-09T12:05:02Z</time>
      </trkpt>
      <trkpt lat="48.20574" lon="-3.10049">
        <ele>88.58</ele>
        <time>2017-04-09T12:05:18Z</time>
      </trkpt>
      <trkpt lat="48.2058" lon="-3.10029">
        <ele>87.62</ele>
        <time>2017-04-09T12:05:30Z</time>
      </trkpt>
      <trkpt lat="48.20585" lon="-3.10015">
        <ele>86.66</ele>
        <time>2017-04-09T12:05:44Z</time>
      </trkpt>
      <trkpt lat="48.20588" lon="-3.09995">
        <ele>86.66</ele>
        <time>2017-04-09T12:05:57Z</time>
      </trkpt>
      <trkpt lat="48.20582" lon="-3.09973">
        <ele>88.1</ele>
        <time>2017-04-09T12:06:12Z</time>
      </trkpt>
      <trkpt lat="48.20578" lon="-3.09958">
        <ele>87.62</ele>
        <time>2017-04-09T12:06:28Z</time>
      </trkpt>
      <trkpt lat="48.20578" lon="-3.09936">
        <ele>89.06</ele>
        <time>2017-04-09T12:06:44Z</time>
      </trkpt>
      <trkpt lat="48.20585" lon="-3.09917">
        <ele>89.06</ele>
        <time>2017-04-09T12:06:57Z</time>
      </trkpt>
      <trkpt lat="48.20589" lon="-3.09894">
        <ele>89.54</ele>
        <time>2017-04-09T12:07:14Z</time>
      </trkpt>
      <trkpt lat="48.20587" lon="-3.09882">
        <ele>91.46</ele>
        <time>2017-04-09T12:07:30Z</time>
      </trkpt>
      <trkpt lat="48.20589" lon="-3.09857">
        <ele>89.54</ele>
        <time>2017-04-09T12:07:49Z</time>
      </trkpt>
      <trkpt lat="48.20585" lon="-3.0984">
        <ele>90.98</ele>
        <time>2017-04-09T12:08:07Z</time>
      </trkpt>
      <trkpt lat="48.20583" lon="-3.09832">
        <ele>90.5</ele>
        <time>2017-04-09T12:08:13Z</time>
      </trkpt>
      <trkpt lat="48.2058" lon="-3.09808">
        <ele>89.54</ele>
        <time>2017-04-09T12:08:30Z</time>
      </trkpt>
      <trkpt lat="48.20575" lon="-3.09773">
        <ele>88.1</ele>
        <time>2017-04-09T12:08:47Z</time>
      </trkpt>
      <trkpt lat="48.20569" lon="-3.09756">
        <ele>88.58</ele>
        <time>2017-04-09T12:09:02Z</time>
      </trkpt>
      <trkpt lat="48.20562" lon="-3.09737">
        <ele>88.58</ele>
        <time>2017-04-09T12:09:18Z</time>
      </trkpt>
      <trkpt lat="48.20549" lon="-3.09719">
        <ele>89.54</ele>
        <time>2017-04-09T12:09:34Z</time>
      </trkpt>
      <trkpt lat="48.2054" lon="-3.09702">
        <ele>89.54</ele>
        <time>2017-04-09T12:09:49Z</time>
      </trkpt>
      <trkpt lat="48.2053" lon="-3.09691">
        <ele>90.5</ele>
        <time>2017-04-09T12:10:02Z</time>
      </trkpt>
      <trkpt lat="48.20525" lon="-3.09684">
        <ele>90.98</ele>
        <time>2017-04-09T12:10:14Z</time>
      </trkpt>
      <trkpt lat="48.20525" lon="-3.0968">
        <ele>90.98</ele>
        <time>2017-04-09T12:10:27Z</time>
      </trkpt>
      <trkpt lat="48.20526" lon="-3.09675">
        <ele>90.98</ele>
        <time>2017-04-09T12:10:45Z</time>
      </trkpt>
      <trkpt lat="48.20519" lon="-3.0967">
        <ele>91.46</ele>
        <time>2017-04-09T12:11:02Z</time>
      </trkpt>
      <trkpt lat="48.2052" lon="-3.09671">
        <ele>91.46</ele>
        <time>2017-04-09T12:11:04Z</time>
      </trkpt>
      <trkpt lat="48.20511" lon="-3.09653">
        <ele>91.46</ele>
        <time>2017-04-09T12:11:22Z</time>
      </trkpt>
      <trkpt lat="48.20492" lon="-3.09627">
        <ele>92.42</ele>
        <time>2017-04-09T12:11:37Z</time>
      </trkpt>
      <trkpt lat="48.20484" lon="-3.09624">
        <ele>92.42</ele>
        <time>2017-04-09T12:11:53Z</time>
      </trkpt>
      <trkpt lat="48.20482" lon="-3.09625">
        <ele>91.94</ele>
        <time>2017-04-09T12:12:12Z</time>
      </trkpt>
      <trkpt lat="48.20475" lon="-3.09623">
        <ele>92.9</ele>
        <time>2017-04-09T12:12:26Z</time>
      </trkpt>
      <trkpt lat="48.20457" lon="-3.09615">
        <ele>92.9</ele>
        <time>2017-04-09T12:12:42Z</time>
      </trkpt>
      <trkpt lat="48.20444" lon="-3.09608">
        <ele>92.42</ele>
        <time>2017-04-09T12:12:58Z</time>
      </trkpt>
      <trkpt lat="48.20437" lon="-3.09606">
        <ele>92.42</ele>
        <time>2017-04-09T12:13:12Z</time>
      </trkpt>
      <trkpt lat="48.20427" lon="-3.09597">
        <ele>91.94</ele>
        <time>2017-04-09T12:13:21Z</time>
      </trkpt>
      <trkpt lat="48.20416" lon="-3.09586">
        <ele>91.94</ele>
        <time>2017-04-09T12:13:35Z</time>
      </trkpt>
      <trkpt lat="48.20406" lon="-3.09584">
        <ele>92.9</ele>
        <time>2017-04-09T12:13:47Z</time>
      </trkpt>
      <trkpt lat="48.20399" lon="-3.09584">
        <ele>92.42</ele>
        <time>2017-04-09T12:14:05Z</time>
      </trkpt>
      <trkpt lat="48.20389" lon="-3.09581">
        <ele>91.94</ele>
        <time>2017-04-09T12:14:20Z</time>
      </trkpt>
      <trkpt lat="48.20376" lon="-3.09566">
        <ele>93.87</ele>
        <time>2017-04-09T12:14:35Z</time>
      </trkpt>
      <trkpt lat="48.20373" lon="-3.09561">
        <ele>93.87</ele>
        <time>2017-04-09T12:14:58Z</time>
      </trkpt>
      <trkpt lat="48.20368" lon="-3.09548">
        <ele>94.35</ele>
        <time>2017-04-09T12:15:22Z</time>
      </trkpt>
      <trkpt lat="48.20364" lon="-3.09542">
        <ele>94.35</ele>
        <time>2017-04-09T12:15:42Z</time>
      </trkpt>
      <trkpt lat="48.20366" lon="-3.09544">
        <ele>94.83</ele>
        <time>2017-04-09T12:16:00Z</time>
      </trkpt>
      <trkpt lat="48.20366" lon="-3.09547">
        <ele>95.79</ele>
        <time>2017-04-09T12:16:33Z</time>
      </trkpt>
      <trkpt lat="48.20363" lon="-3.09544">
        <ele>95.79</ele>
        <time>2017-04-09T12:16:51Z</time>
      </trkpt>
      <trkpt lat="48.20359" lon="-3.09554">
        <ele>96.75</ele>
        <time>2017-04-09T12:17:12Z</time>
      </trkpt>
      <trkpt lat="48.2036" lon="-3.09554">
        <ele>96.75</ele>
        <time>2017-04-09T12:17:32Z</time>
      </trkpt>
      <trkpt lat="48.20363" lon="-3.09554">
        <ele>96.75</ele>
        <time>2017-04-09T12:17:56Z</time>
      </trkpt>
      <trkpt lat="48.20364" lon="-3.09552">
        <ele>98.19</ele>
        <time>2017-04-09T12:18:16Z</time>
      </trkpt>
      <trkpt lat="48.20363" lon="-3.09552">
        <ele>97.71</ele>
        <time>2017-04-09T12:18:36Z</time>
      </trkpt>
      <trkpt lat="48.20362" lon="-3.09556">
        <ele>99.15</ele>
        <time>2017-04-09T12:18:50Z</time>
      </trkpt>
      <trkpt lat="48.20363" lon="-3.09557">
        <ele>99.15</ele>
        <time>2017-04-09T12:19:15Z</time>
      </trkpt>
      <trkpt lat="48.20362" lon="-3.09557">
        <ele>100.11</ele>
        <time>2017-04-09T12:19:39Z</time>
      </trkpt>
      <trkpt lat="48.2036" lon="-3.09559">
        <ele>100.6</ele>
        <time>2017-04-09T12:20:02Z</time>
      </trkpt>
      <trkpt lat="48.2035" lon="-3.09563">
        <ele>98.67</ele>
        <time>2017-04-09T12:20:16Z</time>
      </trkpt>
      <trkpt lat="48.20353" lon="-3.09569">
        <ele>98.67</ele>
        <time>2017-04-09T12:20:31Z</time>
      </trkpt>
      <trkpt lat="48.20346" lon="-3.09574">
        <ele>98.67</ele>
        <time>2017-04-09T12:20:54Z</time>
      </trkpt>
      <trkpt lat="48.20344" lon="-3.09577">
        <ele>99.63</ele>
        <time>2017-04-09T12:21:10Z</time>
      </trkpt>
      <trkpt lat="48.20335" lon="-3.09586">
        <ele>101.08</ele>
        <time>2017-04-09T12:21:24Z</time>
      </trkpt>
      <trkpt lat="48.2033" lon="-3.09587">
        <ele>100.6</ele>
        <time>2017-04-09T12:21:41Z</time>
      </trkpt>
      <trkpt lat="48.20318" lon="-3.09587">
        <ele>100.11</ele>
        <time>2017-04-09T12:21:54Z</time>
      </trkpt>
      <trkpt lat="48.20309" lon="-3.09586">
        <ele>99.15</ele>
        <time>2017-04-09T12:22:07Z</time>
      </trkpt>
      <trkpt lat="48.20297" lon="-3.09594">
        <ele>98.19</ele>
        <time>2017-04-09T12:22:22Z</time>
      </trkpt>
      <trkpt lat="48.2028" lon="-3.09602">
        <ele>98.67</ele>
        <time>2017-04-09T12:22:37Z</time>
      </trkpt>
      <trkpt lat="48.20269" lon="-3.09607">
        <ele>99.15</ele>
        <time>2017-04-09T12:22:52Z</time>
      </trkpt>
      <trkpt lat="48.20263" lon="-3.096">
        <ele>98.19</ele>
        <time>2017-04-09T12:23:07Z</time>
      </trkpt>
      <trkpt lat="48.20264" lon="-3.09599">
        <ele>97.71</ele>
        <time>2017-04-09T12:23:25Z</time>
      </trkpt>
      <trkpt lat="48.20266" lon="-3.09597">
        <ele>97.23</ele>
        <time>2017-04-09T12:23:44Z</time>
      </trkpt>
      <trkpt lat="48.20266" lon="-3.09598">
        <ele>97.71</ele>
        <time>2017-04-09T12:24:12Z</time>
      </trkpt>
      <trkpt lat="48.20264" lon="-3.09597">
        <ele>97.71</ele>
        <time>2017-04-09T12:24:15Z</time>
      </trkpt>
      <trkpt lat="48.20258" lon="-3.09592">
        <ele>98.19</ele>
        <time>2017-04-09T12:24:35Z</time>
      </trkpt>
      <trkpt lat="48.20262" lon="-3.09594">
        <ele>98.19</ele>
        <time>2017-04-09T12:25:00Z</time>
      </trkpt>
      <trkpt lat="48.20263" lon="-3.09597">
        <ele>98.67</ele>
        <time>2017-04-09T12:25:27Z</time>
      </trkpt>
      <trkpt lat="48.20263" lon="-3.09596">
        <ele>99.15</ele>
        <time>2017-04-09T12:25:51Z</time>
      </trkpt>
      <trkpt lat="48.20264" lon="-3.09595">
        <ele>99.15</ele>
        <time>2017-04-09T12:26:14Z</time>
      </trkpt>
      <trkpt lat="48.20264" lon="-3.09603">
        <ele>99.15</ele>
        <time>2017-04-09T12:26:34Z</time>
      </trkpt>
      <trkpt lat="48.20253" lon="-3.09588">
        <ele>99.15</ele>
        <time>2017-04-09T12:27:02Z</time>
      </trkpt>
      <trkpt lat="48.20257" lon="-3.09588">
        <ele>99.15</ele>
        <time>2017-04-09T12:27:05Z</time>
      </trkpt>
      <trkpt lat="48.20267" lon="-3.09596">
        <ele>99.15</ele>
        <time>2017-04-09T12:27:20Z</time>
      </trkpt>
      <trkpt lat="48.20272" lon="-3.09592">
        <ele>99.63</ele>
        <time>2017-04-09T12:27:50Z</time>
      </trkpt>
      <trkpt lat="48.20274" lon="-3.09593">
        <ele>99.63</ele>
        <time>2017-04-09T12:28:13Z</time>
      </trkpt>
      <trkpt lat="48.20273" lon="-3.09592">
        <ele>99.63</ele>
        <time>2017-04-09T12:28:41Z</time>
      </trkpt>
      <trkpt lat="48.20271" lon="-3.09589">
        <ele>100.11</ele>
        <time>2017-04-09T12:29:05Z</time>
      </trkpt>
      <trkpt lat="48.20271" lon="-3.0959">
        <ele>101.56</ele>
        <time>2017-04-09T12:29:24Z</time>
      </trkpt>
      <trkpt lat="48.20261" lon="-3.09593">
        <ele>101.08</ele>
        <time>2017-04-09T12:29:37Z</time>
      </trkpt>
      <trkpt lat="48.20249" lon="-3.09587">
        <ele>101.08</ele>
        <time>2017-04-09T12:29:50Z</time>
      </trkpt>
      <trkpt lat="48.20237" lon="-3.09592">
        <ele>102.52</ele>
        <time>2017-04-09T12:30:04Z</time>
      </trkpt>
      <trkpt lat="48.20226" lon="-3.09585">
        <ele>103.48</ele>
        <time>2017-04-09T12:30:17Z</time>
      </trkpt>
      <trkpt lat="48.20216" lon="-3.09578">
        <ele>104.44</ele>
        <time>2017-04-09T12:30:33Z</time>
      </trkpt>
      <trkpt lat="48.20212" lon="-3.0957">
        <ele>103</ele>
        <time>2017-04-09T12:30:43Z</time>
      </trkpt>
      <trkpt lat="48.20205" lon="-3.09564">
        <ele>102.52</ele>
        <time>2017-04-09T12:30:53Z</time>
      </trkpt>
      <trkpt lat="48.20191" lon="-3.0955">
        <ele>103</ele>
        <time>2017-04-09T12:31:08Z</time>
      </trkpt>
      <trkpt lat="48.20187" lon="-3.09551">
        <ele>102.52</ele>
        <time>2017-04-09T12:31:23Z</time>
      </trkpt>
      <trkpt lat="48.20184" lon="-3.0955">
        <ele>103</ele>
        <time>2017-04-09T12:31:35Z</time>
      </trkpt>
      <trkpt lat="48.20181" lon="-3.09548">
        <ele>103.96</ele>
        <time>2017-04-09T12:31:52Z</time>
      </trkpt>
      <trkpt lat="48.2017" lon="-3.09544">
        <ele>105.4</ele>
        <time>2017-04-09T12:32:05Z</time>
      </trkpt>
      <trkpt lat="48.20161" lon="-3.09527">
        <ele>104.92</ele>
        <time>2017-04-09T12:32:17Z</time>
      </trkpt>
      <trkpt lat="48.20158" lon="-3.09525">
        <ele>104.44</ele>
        <time>2017-04-09T12:32:25Z</time>
      </trkpt>
      <trkpt lat="48.20151" lon="-3.09519">
        <ele>104.92</ele>
        <time>2017-04-09T12:32:37Z</time>
      </trkpt>
      <trkpt lat="48.20149" lon="-3.09518">
        <ele>105.4</ele>
        <time>2017-04-09T12:32:51Z</time>
      </trkpt>
      <trkpt lat="48.20149" lon="-3.09518">
        <ele>105.4</ele>
        <time>2017-04-09T12:33:07Z</time>
      </trkpt>
      <trkpt lat="48.20147" lon="-3.09515">
        <ele>105.4</ele>
        <time>2017-04-09T12:33:18Z</time>
      </trkpt>
      <trkpt lat="48.20141" lon="-3.09509">
        <ele>105.88</ele>
        <time>2017-04-09T12:33:31Z</time>
      </trkpt>
      <trkpt lat="48.20135" lon="-3.09496">
        <ele>107.32</ele>
        <time>2017-04-09T12:33:43Z</time>
      </trkpt>
      <trkpt lat="48.20131" lon="-3.09494">
        <ele>108.29</ele>
        <time>2017-04-09T12:34:02Z</time>
      </trkpt>
      <trkpt lat="48.2013" lon="-3.09494">
        <ele>107.81</ele>
        <time>2017-04-09T12:34:23Z</time>
      </trkpt>
      <trkpt lat="48.20127" lon="-3.09485">
        <ele>106.84</ele>
        <time>2017-04-09T12:34:31Z</time>
      </trkpt>
      <trkpt lat="48.20123" lon="-3.09472">
        <ele>107.32</ele>
        <time>2017-04-09T12:34:42Z</time>
      </trkpt>
      <trkpt lat="48.20123" lon="-3.09469">
        <ele>108.77</ele>
        <time>2017-04-09T12:34:56Z</time>
      </trkpt>
      <trkpt lat="48.20123" lon="-3.09465">
        <ele>107.81</ele>
        <time>2017-04-09T12:35:02Z</time>
      </trkpt>
      <trkpt lat="48.20121" lon="-3.09449">
        <ele>106.84</ele>
        <time>2017-04-09T12:35:11Z</time>
      </trkpt>
      <trkpt lat="48.2012" lon="-3.09446">
        <ele>106.84</ele>
        <time>2017-04-09T12:35:13Z</time>
      </trkpt>
      <trkpt lat="48.20116" lon="-3.09434">
        <ele>106.84</ele>
        <time>2017-04-09T12:35:26Z</time>
      </trkpt>
      <trkpt lat="48.20117" lon="-3.09421">
        <ele>106.36</ele>
        <time>2017-04-09T12:35:36Z</time>
      </trkpt>
      <trkpt lat="48.20118" lon="-3.0942">
        <ele>105.88</ele>
        <time>2017-04-09T12:35:37Z</time>
      </trkpt>
      <trkpt lat="48.20117" lon="-3.09415">
        <ele>106.36</ele>
        <time>2017-04-09T12:35:46Z</time>
      </trkpt>
      <trkpt lat="48.20121" lon="-3.09407">
        <ele>106.36</ele>
        <time>2017-04-09T12:35:53Z</time>
      </trkpt>
      <trkpt lat="48.20121" lon="-3.09395">
        <ele>105.88</ele>
        <time>2017-04-09T12:36:03Z</time>
      </trkpt>
      <trkpt lat="48.20121" lon="-3.0939">
        <ele>107.32</ele>
        <time>2017-04-09T12:36:16Z</time>
      </trkpt>
      <trkpt lat="48.20121" lon="-3.0938">
        <ele>106.84</ele>
        <time>2017-04-09T12:36:28Z</time>
      </trkpt>
      <trkpt lat="48.20121" lon="-3.0937">
        <ele>108.77</ele>
        <time>2017-04-09T12:36:39Z</time>
      </trkpt>
      <trkpt lat="48.2012" lon="-3.09358">
        <ele>109.73</ele>
        <time>2017-04-09T12:36:52Z</time>
      </trkpt>
      <trkpt lat="48.20119" lon="-3.09359">
        <ele>110.21</ele>
        <time>2017-04-09T12:37:07Z</time>
      </trkpt>
      <trkpt lat="48.20117" lon="-3.0936">
        <ele>110.21</ele>
        <time>2017-04-09T12:37:25Z</time>
      </trkpt>
      <trkpt lat="48.20115" lon="-3.09359">
        <ele>110.69</ele>
        <time>2017-04-09T12:37:50Z</time>
      </trkpt>
      <trkpt lat="48.20115" lon="-3.09359">
        <ele>110.69</ele>
        <time>2017-04-09T12:38:10Z</time>
      </trkpt>
      <trkpt lat="48.20117" lon="-3.09357">
        <ele>111.17</ele>
        <time>2017-04-09T12:38:26Z</time>
      </trkpt>
      <trkpt lat="48.20117" lon="-3.09351">
        <ele>112.61</ele>
        <time>2017-04-09T12:38:39Z</time>
      </trkpt>
      <trkpt lat="48.20117" lon="-3.09351">
        <ele>113.09</ele>
        <time>2017-04-09T12:38:53Z</time>
      </trkpt>
      <trkpt lat="48.20118" lon="-3.09354">
        <ele>111.17</ele>
        <time>2017-04-09T12:39:06Z</time>
      </trkpt>
      <trkpt lat="48.20119" lon="-3.09352">
        <ele>111.17</ele>
        <time>2017-04-09T12:39:11Z</time>
      </trkpt>
      <trkpt lat="48.2012" lon="-3.09348">
        <ele>110.21</ele>
        <time>2017-04-09T12:39:22Z</time>
      </trkpt>
      <trkpt lat="48.20122" lon="-3.09341">
        <ele>110.21</ele>
        <time>2017-04-09T12:39:33Z</time>
      </trkpt>
      <trkpt lat="48.20124" lon="-3.09336">
        <ele>110.21</ele>
        <time>2017-04-09T12:39:40Z</time>
      </trkpt>
      <trkpt lat="48.20125" lon="-3.09321">
        <ele>111.65</ele>
        <time>2017-04-09T12:39:50Z</time>
      </trkpt>
      <trkpt lat="48.20125" lon="-3.09315">
        <ele>111.65</ele>
        <time>2017-04-09T12:40:10Z</time>
      </trkpt>
      <trkpt lat="48.20127" lon="-3.09309">
        <ele>111.17</ele>
        <time>2017-04-09T12:40:21Z</time>
      </trkpt>
      <trkpt lat="48.20126" lon="-3.09299">
        <ele>113.57</ele>
        <time>2017-04-09T12:40:32Z</time>
      </trkpt>
      <trkpt lat="48.20125" lon="-3.09291">
        <ele>115.5</ele>
        <time>2017-04-09T12:40:44Z</time>
      </trkpt>
      <trkpt lat="48.20126" lon="-3.09278">
        <ele>115.98</ele>
        <time>2017-04-09T12:40:55Z</time>
      </trkpt>
      <trkpt lat="48.20123" lon="-3.09264">
        <ele>115.98</ele>
        <time>2017-04-09T12:41:09Z</time>
      </trkpt>
      <trkpt lat="48.20125" lon="-3.09265">
        <ele>116.94</ele>
        <time>2017-04-09T12:41:30Z</time>
      </trkpt>
      <trkpt lat="48.20125" lon="-3.09261">
        <ele>115.01</ele>
        <time>2017-04-09T12:41:55Z</time>
      </trkpt>
      <trkpt lat="48.20127" lon="-3.09262">
        <ele>116.94</ele>
        <time>2017-04-09T12:42:19Z</time>
      </trkpt>
      <trkpt lat="48.20128" lon="-3.09263">
        <ele>115.98</ele>
        <time>2017-04-09T12:42:43Z</time>
      </trkpt>
      <trkpt lat="48.20128" lon="-3.09264">
        <ele>116.94</ele>
        <time>2017-04-09T12:42:46Z</time>
      </trkpt>
      <trkpt lat="48.20131" lon="-3.09255">
        <ele>115.5</ele>
        <time>2017-04-09T12:42:58Z</time>
      </trkpt>
      <trkpt lat="48.20133" lon="-3.09249">
        <ele>115.01</ele>
        <time>2017-04-09T12:43:16Z</time>
      </trkpt>
      <trkpt lat="48.20135" lon="-3.09243">
        <ele>115.5</ele>
        <time>2017-04-09T12:43:27Z</time>
      </trkpt>
      <trkpt lat="48.20135" lon="-3.09239">
        <ele>115.5</ele>
        <time>2017-04-09T12:43:31Z</time>
      </trkpt>
      <trkpt lat="48.20133" lon="-3.09228">
        <ele>116.94</ele>
        <time>2017-04-09T12:43:47Z</time>
      </trkpt>
      <trkpt lat="48.20134" lon="-3.09224">
        <ele>117.42</ele>
        <time>2017-04-09T12:44:03Z</time>
      </trkpt>
      <trkpt lat="48.20134" lon="-3.09219">
        <ele>116.94</ele>
        <time>2017-04-09T12:44:17Z</time>
      </trkpt>
      <trkpt lat="48.20131" lon="-3.09218">
        <ele>118.38</ele>
        <time>2017-04-09T12:44:29Z</time>
      </trkpt>
      <trkpt lat="48.20125" lon="-3.09214">
        <ele>119.34</ele>
        <time>2017-04-09T12:44:42Z</time>
      </trkpt>
      <trkpt lat="48.20124" lon="-3.09198">
        <ele>119.34</ele>
        <time>2017-04-09T12:44:54Z</time>
      </trkpt>
      <trkpt lat="48.20124" lon="-3.09191">
        <ele>119.82</ele>
        <time>2017-04-09T12:45:07Z</time>
      </trkpt>
      <trkpt lat="48.2012" lon="-3.0918">
        <ele>119.34</ele>
        <time>2017-04-09T12:45:20Z</time>
      </trkpt>
      <trkpt lat="48.20118" lon="-3.09176">
        <ele>119.82</ele>
        <time>2017-04-09T12:45:33Z</time>
      </trkpt>
      <trkpt lat="48.20119" lon="-3.09179">
        <ele>120.3</ele>
        <time>2017-04-09T12:45:53Z</time>
      </trkpt>
      <trkpt lat="48.20117" lon="-3.09178">
        <ele>119.82</ele>
        <time>2017-04-09T12:46:08Z</time>
      </trkpt>
      <trkpt lat="48.20118" lon="-3.09177">
        <ele>119.82</ele>
        <time>2017-04-09T12:46:26Z</time>
      </trkpt>
      <trkpt lat="48.20118" lon="-3.09175">
        <ele>119.34</ele>
        <time>2017-04-09T12:46:39Z</time>
      </trkpt>
      <trkpt lat="48.20119" lon="-3.09177">
        <ele>119.34</ele>
        <time>2017-04-09T12:46:59Z</time>
      </trkpt>
      <trkpt lat="48.20118" lon="-3.09176">
        <ele>119.82</ele>
        <time>2017-04-09T12:47:12Z</time>
      </trkpt>
      <trkpt lat="48.20118" lon="-3.09175">
        <ele>119.82</ele>
        <time>2017-04-09T12:47:31Z</time>
      </trkpt>
      <trkpt lat="48.20115" lon="-3.09174">
        <ele>121.26</ele>
        <time>2017-04-09T12:47:49Z</time>
      </trkpt>
      <trkpt lat="48.20113" lon="-3.09179">
        <ele>122.22</ele>
        <time>2017-04-09T12:47:58Z</time>
      </trkpt>
      <trkpt lat="48.20114" lon="-3.09183">
        <ele>122.22</ele>
        <time>2017-04-09T12:48:10Z</time>
      </trkpt>
      <trkpt lat="48.20114" lon="-3.09187">
        <ele>122.71</ele>
        <time>2017-04-09T12:48:15Z</time>
      </trkpt>
      <trkpt lat="48.20114" lon="-3.09192">
        <ele>122.71</ele>
        <time>2017-04-09T12:48:22Z</time>
      </trkpt>
      <trkpt lat="48.20114" lon="-3.09202">
        <ele>123.19</ele>
        <time>2017-04-09T12:48:30Z</time>
      </trkpt>
      <trkpt lat="48.20113" lon="-3.09222">
        <ele>124.63</ele>
        <time>2017-04-09T12:48:42Z</time>
      </trkpt>
      <trkpt lat="48.20111" lon="-3.09233">
        <ele>124.63</ele>
        <time>2017-04-09T12:48:55Z</time>
      </trkpt>
      <trkpt lat="48.20112" lon="-3.0924">
        <ele>124.63</ele>
        <time>2017-04-09T12:49:06Z</time>
      </trkpt>
      <trkpt lat="48.20102" lon="-3.09264">
        <ele>126.07</ele>
        <time>2017-04-09T12:49:26Z</time>
      </trkpt>
      <trkpt lat="48.20097" lon="-3.09279">
        <ele>126.55</ele>
        <time>2017-04-09T12:49:42Z</time>
      </trkpt>
      <trkpt lat="48.20093" lon="-3.09299">
        <ele>125.59</ele>
        <time>2017-04-09T12:49:59Z</time>
      </trkpt>
      <trkpt lat="48.2009" lon="-3.09326">
        <ele>126.55</ele>
        <time>2017-04-09T12:50:17Z</time>
      </trkpt>
      <trkpt lat="48.20085" lon="-3.09346">
        <ele>127.51</ele>
        <time>2017-04-09T12:50:30Z</time>
      </trkpt>
      <trkpt lat="48.20078" lon="-3.09365">
        <ele>129.92</ele>
        <time>2017-04-09T12:50:46Z</time>
      </trkpt>
      <trkpt lat="48.2007" lon="-3.09387">
        <ele>131.84</ele>
        <time>2017-04-09T12:51:02Z</time>
      </trkpt>
      <trkpt lat="48.20063" lon="-3.09398">
        <ele>133.28</ele>
        <time>2017-04-09T12:51:17Z</time>
      </trkpt>
      <trkpt lat="48.2006" lon="-3.09406">
        <ele>134.24</ele>
        <time>2017-04-09T12:51:42Z</time>
      </trkpt>
      <trkpt lat="48.20058" lon="-3.09414">
        <ele>135.2</ele>
        <time>2017-04-09T12:51:59Z</time>
      </trkpt>
      <trkpt lat="48.20061" lon="-3.09417">
        <ele>135.68</ele>
        <time>2017-04-09T12:52:25Z</time>
      </trkpt>
      <trkpt lat="48.20057" lon="-3.09438">
        <ele>137.13</ele>
        <time>2017-04-09T12:52:41Z</time>
      </trkpt>
      <trkpt lat="48.20058" lon="-3.09457">
        <ele>138.57</ele>
        <time>2017-04-09T12:52:56Z</time>
      </trkpt>
      <trkpt lat="48.2006" lon="-3.09476">
        <ele>139.05</ele>
        <time>2017-04-09T12:53:13Z</time>
      </trkpt>
      <trkpt lat="48.2006" lon="-3.095">
        <ele>140.01</ele>
        <time>2017-04-09T12:53:28Z</time>
      </trkpt>
      <trkpt lat="48.20058" lon="-3.09512">
        <ele>140.97</ele>
        <time>2017-04-09T12:53:42Z</time>
      </trkpt>
      <trkpt lat="48.20062" lon="-3.09537">
        <ele>142.89</ele>
        <time>2017-04-09T12:54:02Z</time>
      </trkpt>
      <trkpt lat="48.20065" lon="-3.09576">
        <ele>144.34</ele>
        <time>2017-04-09T12:54:18Z</time>
      </trkpt>
      <trkpt lat="48.20074" lon="-3.09588">
        <ele>146.26</ele>
        <time>2017-04-09T12:54:33Z</time>
      </trkpt>
      <trkpt lat="48.20077" lon="-3.09597">
        <ele>147.7</ele>
        <time>2017-04-09T12:54:48Z</time>
      </trkpt>
      <trkpt lat="48.20075" lon="-3.09605">
        <ele>148.18</ele>
        <time>2017-04-09T12:55:02Z</time>
      </trkpt>
      <trkpt lat="48.20073" lon="-3.09608">
        <ele>148.66</ele>
        <time>2017-04-09T12:55:19Z</time>
      </trkpt>
      <trkpt lat="48.20076" lon="-3.09603">
        <ele>148.66</ele>
        <time>2017-04-09T12:55:45Z</time>
      </trkpt>
      <trkpt lat="48.20078" lon="-3.09607">
        <ele>148.66</ele>
        <time>2017-04-09T12:56:10Z</time>
      </trkpt>
      <trkpt lat="48.20079" lon="-3.09608">
        <ele>147.22</ele>
        <time>2017-04-09T12:56:29Z</time>
      </trkpt>
      <trkpt lat="48.20082" lon="-3.0961">
        <ele>147.7</ele>
        <time>2017-04-09T12:56:43Z</time>
      </trkpt>
      <trkpt lat="48.20082" lon="-3.09611">
        <ele>148.18</ele>
        <time>2017-04-09T12:56:59Z</time>
      </trkpt>
      <trkpt lat="48.20083" lon="-3.09613">
        <ele>148.66</ele>
        <time>2017-04-09T12:57:21Z</time>
      </trkpt>
      <trkpt lat="48.20084" lon="-3.09619">
        <ele>149.14</ele>
        <time>2017-04-09T12:57:35Z</time>
      </trkpt>
      <trkpt lat="48.20087" lon="-3.09631">
        <ele>149.62</ele>
        <time>2017-04-09T12:57:47Z</time>
      </trkpt>
      <trkpt lat="48.20085" lon="-3.09648">
        <ele>149.62</ele>
        <time>2017-04-09T12:58:04Z</time>
      </trkpt>
      <trkpt lat="48.20085" lon="-3.09654">
        <ele>149.62</ele>
        <time>2017-04-09T12:58:12Z</time>
      </trkpt>
      <trkpt lat="48.20089" lon="-3.09667">
        <ele>149.62</ele>
        <time>2017-04-09T12:58:25Z</time>
      </trkpt>
      <trkpt lat="48.20089" lon="-3.09668">
        <ele>150.1</ele>
        <time>2017-04-09T12:58:27Z</time>
      </trkpt>
      <trkpt lat="48.20088" lon="-3.09688">
        <ele>150.58</ele>
        <time>2017-04-09T12:58:40Z</time>
      </trkpt>
      <trkpt lat="48.20095" lon="-3.09704">
        <ele>150.1</ele>
        <time>2017-04-09T12:58:53Z</time>
      </trkpt>
      <trkpt lat="48.20099" lon="-3.09718">
        <ele>150.1</ele>
        <time>2017-04-09T12:58:58Z</time>
      </trkpt>
      <trkpt lat="48.20111" lon="-3.0975">
        <ele>150.58</ele>
        <time>2017-04-09T12:59:10Z</time>
      </trkpt>
      <trkpt lat="48.20112" lon="-3.09767">
        <ele>150.1</ele>
        <time>2017-04-09T12:59:22Z</time>
      </trkpt>
      <trkpt lat="48.2011" lon="-3.09773">
        <ele>150.58</ele>
        <time>2017-04-09T12:59:32Z</time>
      </trkpt>
      <trkpt lat="48.20105" lon="-3.09782">
        <ele>151.06</ele>
        <time>2017-04-09T12:59:42Z</time>
      </trkpt>
      <trkpt lat="48.20101" lon="-3.09792">
        <ele>152.03</ele>
        <time>2017-04-09T12:59:54Z</time>
      </trkpt>
      <trkpt lat="48.20099" lon="-3.09796">
        <ele>152.51</ele>
        <time>2017-04-09T13:00:15Z</time>
      </trkpt>
      <trkpt lat="48.2009" lon="-3.09801">
        <ele>153.95</ele>
        <time>2017-04-09T13:00:26Z</time>
      </trkpt>
      <trkpt lat="48.20085" lon="-3.09805">
        <ele>154.91</ele>
        <time>2017-04-09T13:00:39Z</time>
      </trkpt>
      <trkpt lat="48.20072" lon="-3.09817">
        <ele>156.35</ele>
        <time>2017-04-09T13:00:52Z</time>
      </trkpt>
      <trkpt lat="48.20064" lon="-3.09828">
        <ele>157.79</ele>
        <time>2017-04-09T13:01:09Z</time>
      </trkpt>
      <trkpt lat="48.20048" lon="-3.0985">
        <ele>158.75</ele>
        <time>2017-04-09T13:01:22Z</time>
      </trkpt>
      <trkpt lat="48.2004" lon="-3.0986">
        <ele>159.24</ele>
        <time>2017-04-09T13:01:31Z</time>
      </trkpt>
      <trkpt lat="48.20032" lon="-3.09874">
        <ele>159.72</ele>
        <time>2017-04-09T13:01:38Z</time>
      </trkpt>
      <trkpt lat="48.20019" lon="-3.09887">
        <ele>160.68</ele>
        <time>2017-04-09T13:01:51Z</time>
      </trkpt>
      <trkpt lat="48.20008" lon="-3.09895">
        <ele>162.12</ele>
        <time>2017-04-09T13:02:05Z</time>
      </trkpt>
      <trkpt lat="48.20006" lon="-3.09897">
        <ele>162.12</ele>
        <time>2017-04-09T13:02:08Z</time>
      </trkpt>
      <trkpt lat="48.20002" lon="-3.09899">
        <ele>162.12</ele>
        <time>2017-04-09T13:02:10Z</time>
      </trkpt>
      <trkpt lat="48.19987" lon="-3.09908">
        <ele>164.04</ele>
        <time>2017-04-09T13:02:22Z</time>
      </trkpt>
      <trkpt lat="48.19986" lon="-3.09908">
        <ele>163.08</ele>
        <time>2017-04-09T13:02:23Z</time>
      </trkpt>
      <trkpt lat="48.1998" lon="-3.09907">
        <ele>163.56</ele>
        <time>2017-04-09T13:02:29Z</time>
      </trkpt>
      <trkpt lat="48.19972" lon="-3.09903">
        <ele>164.04</ele>
        <time>2017-04-09T13:02:38Z</time>
      </trkpt>
      <trkpt lat="48.19964" lon="-3.099">
        <ele>165.48</ele>
        <time>2017-04-09T13:02:48Z</time>
      </trkpt>
      <trkpt lat="48.19958" lon="-3.09897">
        <ele>165.96</ele>
        <time>2017-04-09T13:02:59Z</time>
      </trkpt>
      <trkpt lat="48.19955" lon="-3.09901">
        <ele>167.41</ele>
        <time>2017-04-09T13:03:07Z</time>
      </trkpt>
      <trkpt lat="48.19951" lon="-3.09911">
        <ele>167.89</ele>
        <time>2017-04-09T13:03:16Z</time>
      </trkpt>
      <trkpt lat="48.19942" lon="-3.0992">
        <ele>168.85</ele>
        <time>2017-04-09T13:03:29Z</time>
      </trkpt>
      <trkpt lat="48.1994" lon="-3.09923">
        <ele>169.33</ele>
        <time>2017-04-09T13:03:30Z</time>
      </trkpt>
      <trkpt lat="48.19931" lon="-3.09936">
        <ele>170.29</ele>
        <time>2017-04-09T13:03:40Z</time>
      </trkpt>
      <trkpt lat="48.19925" lon="-3.09951">
        <ele>171.25</ele>
        <time>2017-04-09T13:03:55Z</time>
      </trkpt>
      <trkpt lat="48.19918" lon="-3.09959">
        <ele>172.21</ele>
        <time>2017-04-09T13:04:12Z</time>
      </trkpt>
      <trkpt lat="48.19913" lon="-3.09961">
        <ele>173.17</ele>
        <time>2017-04-09T13:04:21Z</time>
      </trkpt>
      <trkpt lat="48.19908" lon="-3.09964">
        <ele>173.66</ele>
        <time>2017-04-09T13:04:27Z</time>
      </trkpt>
      <trkpt lat="48.19902" lon="-3.09963">
        <ele>174.14</ele>
        <time>2017-04-09T13:04:38Z</time>
      </trkpt>
      <trkpt lat="48.19888" lon="-3.09961">
        <ele>175.1</ele>
        <time>2017-04-09T13:04:50Z</time>
      </trkpt>
      <trkpt lat="48.19882" lon="-3.09962">
        <ele>175.58</ele>
        <time>2017-04-09T13:05:03Z</time>
      </trkpt>
      <trkpt lat="48.19877" lon="-3.09962">
        <ele>176.54</ele>
        <time>2017-04-09T13:05:18Z</time>
      </trkpt>
      <trkpt lat="48.19875" lon="-3.09964">
        <ele>176.06</ele>
        <time>2017-04-09T13:05:23Z</time>
      </trkpt>
      <trkpt lat="48.19866" lon="-3.09971">
        <ele>177.02</ele>
        <time>2017-04-09T13:05:34Z</time>
      </trkpt>
      <trkpt lat="48.19858" lon="-3.09977">
        <ele>177.98</ele>
        <time>2017-04-09T13:05:44Z</time>
      </trkpt>
      <trkpt lat="48.19851" lon="-3.09989">
        <ele>178.46</ele>
        <time>2017-04-09T13:05:58Z</time>
      </trkpt>
      <trkpt lat="48.19854" lon="-3.09994">
        <ele>177.98</ele>
        <time>2017-04-09T13:06:09Z</time>
      </trkpt>
      <trkpt lat="48.19856" lon="-3.09995">
        <ele>177.5</ele>
        <time>2017-04-09T13:06:11Z</time>
      </trkpt>
      <trkpt lat="48.19856" lon="-3.09999">
        <ele>177.02</ele>
        <time>2017-04-09T13:06:16Z</time>
      </trkpt>
      <trkpt lat="48.19869" lon="-3.10018">
        <ele>176.06</ele>
        <time>2017-04-09T13:06:31Z</time>
      </trkpt>
      <trkpt lat="48.19882" lon="-3.10038">
        <ele>175.1</ele>
        <time>2017-04-09T13:06:45Z</time>
      </trkpt>
      <trkpt lat="48.19886" lon="-3.10074">
        <ele>174.62</ele>
        <time>2017-04-09T13:07:00Z</time>
      </trkpt>
      <trkpt lat="48.19901" lon="-3.10101">
        <ele>174.14</ele>
        <time>2017-04-09T13:07:17Z</time>
      </trkpt>
      <trkpt lat="48.19911" lon="-3.10117">
        <ele>174.14</ele>
        <time>2017-04-09T13:07:32Z</time>
      </trkpt>
      <trkpt lat="48.19922" lon="-3.10134">
        <ele>173.66</ele>
        <time>2017-04-09T13:07:47Z</time>
      </trkpt>
      <trkpt lat="48.19924" lon="-3.10149">
        <ele>173.66</ele>
        <time>2017-04-09T13:08:04Z</time>
      </trkpt>
      <trkpt lat="48.19936" lon="-3.10165">
        <ele>172.69</ele>
        <time>2017-04-09T13:08:20Z</time>
      </trkpt>
      <trkpt lat="48.19937" lon="-3.10166">
        <ele>172.69</ele>
        <time>2017-04-09T13:08:21Z</time>
      </trkpt>
      <trkpt lat="48.1995" lon="-3.10179">
        <ele>172.21</ele>
        <time>2017-04-09T13:08:38Z</time>
      </trkpt>
      <trkpt lat="48.19959" lon="-3.10189">
        <ele>171.73</ele>
        <time>2017-04-09T13:08:57Z</time>
      </trkpt>
      <trkpt lat="48.19967" lon="-3.10209">
        <ele>172.21</ele>
        <time>2017-04-09T13:09:11Z</time>
      </trkpt>
      <trkpt lat="48.19981" lon="-3.10234">
        <ele>172.69</ele>
        <time>2017-04-09T13:09:27Z</time>
      </trkpt>
      <trkpt lat="48.19985" lon="-3.10241">
        <ele>172.69</ele>
        <time>2017-04-09T13:09:42Z</time>
      </trkpt>
      <trkpt lat="48.2" lon="-3.10239">
        <ele>172.21</ele>
        <time>2017-04-09T13:09:59Z</time>
      </trkpt>
      <trkpt lat="48.20016" lon="-3.10236">
        <ele>171.73</ele>
        <time>2017-04-09T13:10:17Z</time>
      </trkpt>
      <trkpt lat="48.20039" lon="-3.10247">
        <ele>172.21</ele>
        <time>2017-04-09T13:10:31Z</time>
      </trkpt>
      <trkpt lat="48.20062" lon="-3.10235">
        <ele>172.69</ele>
        <time>2017-04-09T13:10:47Z</time>
      </trkpt>
      <trkpt lat="48.20062" lon="-3.10234">
        <ele>173.17</ele>
        <time>2017-04-09T13:10:48Z</time>
      </trkpt>
      <trkpt lat="48.20068" lon="-3.10215">
        <ele>172.69</ele>
        <time>2017-04-09T13:11:06Z</time>
      </trkpt>
      <trkpt lat="48.20068" lon="-3.10216">
        <ele>172.69</ele>
        <time>2017-04-09T13:11:29Z</time>
      </trkpt>
      <trkpt lat="48.20074" lon="-3.10206">
        <ele>172.69</ele>
        <time>2017-04-09T13:11:41Z</time>
      </trkpt>
      <trkpt lat="48.20082" lon="-3.10184">
        <ele>172.21</ele>
        <time>2017-04-09T13:11:56Z</time>
      </trkpt>
      <trkpt lat="48.20088" lon="-3.10168">
        <ele>171.25</ele>
        <time>2017-04-09T13:12:13Z</time>
      </trkpt>
      <trkpt lat="48.2009" lon="-3.10157">
        <ele>171.25</ele>
        <time>2017-04-09T13:12:18Z</time>
      </trkpt>
      <trkpt lat="48.20098" lon="-3.10138">
        <ele>170.29</ele>
        <time>2017-04-09T13:12:34Z</time>
      </trkpt>
      <trkpt lat="48.20101" lon="-3.10134">
        <ele>169.81</ele>
        <time>2017-04-09T13:12:37Z</time>
      </trkpt>
      <trkpt lat="48.20106" lon="-3.10124">
        <ele>169.33</ele>
        <time>2017-04-09T13:12:44Z</time>
      </trkpt>
      <trkpt lat="48.20109" lon="-3.10117">
        <ele>167.89</ele>
        <time>2017-04-09T13:12:55Z</time>
      </trkpt>
      <trkpt lat="48.20123" lon="-3.10091">
        <ele>166.93</ele>
        <time>2017-04-09T13:13:10Z</time>
      </trkpt>
      <trkpt lat="48.20136" lon="-3.10077">
        <ele>165.96</ele>
        <time>2017-04-09T13:13:25Z</time>
      </trkpt>
      <trkpt lat="48.20145" lon="-3.10063">
        <ele>165.96</ele>
        <time>2017-04-09T13:13:40Z</time>
      </trkpt>
      <trkpt lat="48.2015" lon="-3.10053">
        <ele>165.48</ele>
        <time>2017-04-09T13:13:49Z</time>
      </trkpt>
      <trkpt lat="48.20163" lon="-3.10034">
        <ele>165.48</ele>
        <time>2017-04-09T13:14:03Z</time>
      </trkpt>
      <trkpt lat="48.20168" lon="-3.10022">
        <ele>165</ele>
        <time>2017-04-09T13:14:16Z</time>
      </trkpt>
      <trkpt lat="48.20177" lon="-3.10009">
        <ele>165</ele>
        <time>2017-04-09T13:14:34Z</time>
      </trkpt>
      <trkpt lat="48.20186" lon="-3.10001">
        <ele>165.48</ele>
        <time>2017-04-09T13:14:46Z</time>
      </trkpt>
      <trkpt lat="48.20202" lon="-3.09989">
        <ele>165.96</ele>
        <time>2017-04-09T13:15:00Z</time>
      </trkpt>
      <trkpt lat="48.20203" lon="-3.09987">
        <ele>165</ele>
        <time>2017-04-09T13:15:02Z</time>
      </trkpt>
      <trkpt lat="48.20215" lon="-3.09974">
        <ele>166.45</ele>
        <time>2017-04-09T13:15:15Z</time>
      </trkpt>
      <trkpt lat="48.20219" lon="-3.0996">
        <ele>165</ele>
        <time>2017-04-09T13:15:30Z</time>
      </trkpt>
      <trkpt lat="48.20226" lon="-3.09945">
        <ele>165</ele>
        <time>2017-04-09T13:15:42Z</time>
      </trkpt>
      <trkpt lat="48.20237" lon="-3.09924">
        <ele>165.48</ele>
        <time>2017-04-09T13:15:56Z</time>
      </trkpt>
      <trkpt lat="48.20247" lon="-3.09897">
        <ele>165</ele>
        <time>2017-04-09T13:16:12Z</time>
      </trkpt>
      <trkpt lat="48.2025" lon="-3.09875">
        <ele>164.52</ele>
        <time>2017-04-09T13:16:25Z</time>
      </trkpt>
      <trkpt lat="48.20252" lon="-3.09874">
        <ele>164.52</ele>
        <time>2017-04-09T13:16:27Z</time>
      </trkpt>
      <trkpt lat="48.20272" lon="-3.09858">
        <ele>164.04</ele>
        <time>2017-04-09T13:16:46Z</time>
      </trkpt>
      <trkpt lat="48.20284" lon="-3.09842">
        <ele>164.52</ele>
        <time>2017-04-09T13:17:01Z</time>
      </trkpt>
      <trkpt lat="48.20295" lon="-3.09823">
        <ele>165</ele>
        <time>2017-04-09T13:17:17Z</time>
      </trkpt>
      <trkpt lat="48.20308" lon="-3.09817">
        <ele>164.04</ele>
        <time>2017-04-09T13:17:29Z</time>
      </trkpt>
      <trkpt lat="48.20308" lon="-3.09817">
        <ele>167.89</ele>
        <time>2017-04-09T13:17:30Z</time>
      </trkpt>
      <trkpt lat="48.20308" lon="-3.09817">
        <ele>164.04</ele>
        <time>2017-04-09T13:17:31Z</time>
      </trkpt>
      <trkpt lat="48.20308" lon="-3.09817">
        <ele>168.37</ele>
        <time>2017-04-09T13:17:32Z</time>
      </trkpt>
      <trkpt lat="48.2031" lon="-3.09808">
        <ele>167.41</ele>
        <time>2017-04-09T13:17:45Z</time>
      </trkpt>
      <trkpt lat="48.20318" lon="-3.09805">
        <ele>168.85</ele>
        <time>2017-04-09T13:17:57Z</time>
      </trkpt>
      <trkpt lat="48.20331" lon="-3.09803">
        <ele>169.33</ele>
        <time>2017-04-09T13:18:10Z</time>
      </trkpt>
      <trkpt lat="48.20336" lon="-3.098">
        <ele>168.37</ele>
        <time>2017-04-09T13:18:21Z</time>
      </trkpt>
      <trkpt lat="48.20336" lon="-3.09801">
        <ele>169.33</ele>
        <time>2017-04-09T13:18:25Z</time>
      </trkpt>
      <trkpt lat="48.20337" lon="-3.09801">
        <ele>169.33</ele>
        <time>2017-04-09T13:18:28Z</time>
      </trkpt>
      <trkpt lat="48.20347" lon="-3.0981">
        <ele>170.29</ele>
        <time>2017-04-09T13:18:38Z</time>
      </trkpt>
      <trkpt lat="48.20365" lon="-3.09822">
        <ele>171.25</ele>
        <time>2017-04-09T13:18:49Z</time>
      </trkpt>
      <trkpt lat="48.20371" lon="-3.0983">
        <ele>172.69</ele>
        <time>2017-04-09T13:19:01Z</time>
      </trkpt>
      <trkpt lat="48.2038" lon="-3.09837">
        <ele>174.62</ele>
        <time>2017-04-09T13:19:10Z</time>
      </trkpt>
      <trkpt lat="48.20388" lon="-3.09846">
        <ele>175.58</ele>
        <time>2017-04-09T13:19:23Z</time>
      </trkpt>
      <trkpt lat="48.20393" lon="-3.09853">
        <ele>175.58</ele>
        <time>2017-04-09T13:19:35Z</time>
      </trkpt>
      <trkpt lat="48.20404" lon="-3.09871">
        <ele>177.5</ele>
        <time>2017-04-09T13:19:45Z</time>
      </trkpt>
      <trkpt lat="48.20408" lon="-3.09877">
        <ele>177.02</ele>
        <time>2017-04-09T13:20:02Z</time>
      </trkpt>
      <trkpt lat="48.20412" lon="-3.09884">
        <ele>177.5</ele>
        <time>2017-04-09T13:20:08Z</time>
      </trkpt>
      <trkpt lat="48.20414" lon="-3.09888">
        <ele>177.02</ele>
        <time>2017-04-09T13:20:11Z</time>
      </trkpt>
      <trkpt lat="48.2042" lon="-3.09909">
        <ele>176.54</ele>
        <time>2017-04-09T13:20:27Z</time>
      </trkpt>
      <trkpt lat="48.20429" lon="-3.09927">
        <ele>175.58</ele>
        <time>2017-04-09T13:20:42Z</time>
      </trkpt>
      <trkpt lat="48.20433" lon="-3.09942">
        <ele>172.69</ele>
        <time>2017-04-09T13:20:58Z</time>
      </trkpt>
      <trkpt lat="48.20436" lon="-3.09968">
        <ele>171.25</ele>
        <time>2017-04-09T13:21:14Z</time>
      </trkpt>
      <trkpt lat="48.20443" lon="-3.09992">
        <ele>170.77</ele>
        <time>2017-04-09T13:21:29Z</time>
      </trkpt>
      <trkpt lat="48.20445" lon="-3.10001">
        <ele>171.25</ele>
        <time>2017-04-09T13:21:49Z</time>
      </trkpt>
      <trkpt lat="48.20448" lon="-3.10012">
        <ele>172.69</ele>
        <time>2017-04-09T13:22:01Z</time>
      </trkpt>
      <trkpt lat="48.20443" lon="-3.10029">
        <ele>173.66</ele>
        <time>2017-04-09T13:22:15Z</time>
      </trkpt>
      <trkpt lat="48.2044" lon="-3.10045">
        <ele>173.17</ele>
        <time>2017-04-09T13:22:30Z</time>
      </trkpt>
      <trkpt lat="48.20438" lon="-3.10053">
        <ele>173.17</ele>
        <time>2017-04-09T13:22:45Z</time>
      </trkpt>
      <trkpt lat="48.20436" lon="-3.10063">
        <ele>173.66</ele>
        <time>2017-04-09T13:23:02Z</time>
      </trkpt>
      <trkpt lat="48.2043" lon="-3.10077">
        <ele>173.17</ele>
        <time>2017-04-09T13:23:16Z</time>
      </trkpt>
      <trkpt lat="48.20428" lon="-3.10103">
        <ele>172.69</ele>
        <time>2017-04-09T13:23:31Z</time>
      </trkpt>
      <trkpt lat="48.20428" lon="-3.10123">
        <ele>173.17</ele>
        <time>2017-04-09T13:23:45Z</time>
      </trkpt>
      <trkpt lat="48.20428" lon="-3.10128">
        <ele>173.66</ele>
        <time>2017-04-09T13:24:02Z</time>
      </trkpt>
      <trkpt lat="48.20427" lon="-3.10133">
        <ele>174.14</ele>
        <time>2017-04-09T13:24:24Z</time>
      </trkpt>
      <trkpt lat="48.20425" lon="-3.10147">
        <ele>175.1</ele>
        <time>2017-04-09T13:24:34Z</time>
      </trkpt>
      <trkpt lat="48.20422" lon="-3.10155">
        <ele>176.06</ele>
        <time>2017-04-09T13:24:54Z</time>
      </trkpt>
      <trkpt lat="48.20425" lon="-3.10155">
        <ele>177.98</ele>
        <time>2017-04-09T13:25:21Z</time>
      </trkpt>
      <trkpt lat="48.20423" lon="-3.10158">
        <ele>176.06</ele>
        <time>2017-04-09T13:25:27Z</time>
      </trkpt>
      <trkpt lat="48.20413" lon="-3.10176">
        <ele>177.02</ele>
        <time>2017-04-09T13:25:41Z</time>
      </trkpt>
      <trkpt lat="48.20408" lon="-3.10197">
        <ele>178.94</ele>
        <time>2017-04-09T13:25:55Z</time>
      </trkpt>
      <trkpt lat="48.20404" lon="-3.10202">
        <ele>179.9</ele>
        <time>2017-04-09T13:26:06Z</time>
      </trkpt>
      <trkpt lat="48.20396" lon="-3.10213">
        <ele>180.38</ele>
        <time>2017-04-09T13:26:19Z</time>
      </trkpt>
      <trkpt lat="48.20384" lon="-3.10231">
        <ele>181.35</ele>
        <time>2017-04-09T13:26:32Z</time>
      </trkpt>
      <trkpt lat="48.20383" lon="-3.10236">
        <ele>181.83</ele>
        <time>2017-04-09T13:26:37Z</time>
      </trkpt>
      <trkpt lat="48.20377" lon="-3.10252">
        <ele>182.31</ele>
        <time>2017-04-09T13:26:50Z</time>
      </trkpt>
      <trkpt lat="48.20373" lon="-3.10272">
        <ele>182.31</ele>
        <time>2017-04-09T13:27:04Z</time>
      </trkpt>
      <trkpt lat="48.20371" lon="-3.10293">
        <ele>182.79</ele>
        <time>2017-04-09T13:27:19Z</time>
      </trkpt>
      <trkpt lat="48.20373" lon="-3.10305">
        <ele>182.79</ele>
        <time>2017-04-09T13:27:32Z</time>
      </trkpt>
      <trkpt lat="48.20374" lon="-3.10314">
        <ele>183.27</ele>
        <time>2017-04-09T13:27:44Z</time>
      </trkpt>
      <trkpt lat="48.20374" lon="-3.10324">
        <ele>183.27</ele>
        <time>2017-04-09T13:27:54Z</time>
      </trkpt>
      <trkpt lat="48.20374" lon="-3.10338">
        <ele>183.27</ele>
        <time>2017-04-09T13:28:06Z</time>
      </trkpt>
      <trkpt lat="48.20372" lon="-3.10354">
        <ele>183.27</ele>
        <time>2017-04-09T13:28:20Z</time>
      </trkpt>
      <trkpt lat="48.20372" lon="-3.10371">
        <ele>183.27</ele>
        <time>2017-04-09T13:28:31Z</time>
      </trkpt>
      <trkpt lat="48.2037" lon="-3.10386">
        <ele>183.75</ele>
        <time>2017-04-09T13:28:43Z</time>
      </trkpt>
      <trkpt lat="48.20365" lon="-3.10406">
        <ele>183.75</ele>
        <time>2017-04-09T13:28:54Z</time>
      </trkpt>
      <trkpt lat="48.20361" lon="-3.10426">
        <ele>182.79</ele>
        <time>2017-04-09T13:29:07Z</time>
      </trkpt>
      <trkpt lat="48.20359" lon="-3.10447">
        <ele>181.83</ele>
        <time>2017-04-09T13:29:19Z</time>
      </trkpt>
      <trkpt lat="48.20355" lon="-3.10461">
        <ele>180.87</ele>
        <time>2017-04-09T13:29:31Z</time>
      </trkpt>
      <trkpt lat="48.20356" lon="-3.10474">
        <ele>179.42</ele>
        <time>2017-04-09T13:29:44Z</time>
      </trkpt>
      <trkpt lat="48.20354" lon="-3.1049">
        <ele>178.46</ele>
        <time>2017-04-09T13:29:56Z</time>
      </trkpt>
      <trkpt lat="48.20353" lon="-3.10507">
        <ele>177.5</ele>
        <time>2017-04-09T13:30:09Z</time>
      </trkpt>
      <trkpt lat="48.2035" lon="-3.10522">
        <ele>177.5</ele>
        <time>2017-04-09T13:30:20Z</time>
      </trkpt>
      <trkpt lat="48.20349" lon="-3.10529">
        <ele>177.98</ele>
        <time>2017-04-09T13:30:35Z</time>
      </trkpt>
      <trkpt lat="48.20349" lon="-3.10534">
        <ele>178.46</ele>
        <time>2017-04-09T13:30:51Z</time>
      </trkpt>
      <trkpt lat="48.20347" lon="-3.10556">
        <ele>178.94</ele>
        <time>2017-04-09T13:31:06Z</time>
      </trkpt>
      <trkpt lat="48.20348" lon="-3.10579">
        <ele>178.94</ele>
        <time>2017-04-09T13:31:19Z</time>
      </trkpt>
      <trkpt lat="48.20348" lon="-3.10601">
        <ele>179.42</ele>
        <time>2017-04-09T13:31:29Z</time>
      </trkpt>
      <trkpt lat="48.20344" lon="-3.10605">
        <ele>180.38</ele>
        <time>2017-04-09T13:31:42Z</time>
      </trkpt>
      <trkpt lat="48.20338" lon="-3.10612">
        <ele>180.87</ele>
        <time>2017-04-09T13:31:57Z</time>
      </trkpt>
      <trkpt lat="48.20337" lon="-3.10627">
        <ele>180.87</ele>
        <time>2017-04-09T13:32:11Z</time>
      </trkpt>
      <trkpt lat="48.20339" lon="-3.10643">
        <ele>181.35</ele>
        <time>2017-04-09T13:32:25Z</time>
      </trkpt>
      <trkpt lat="48.20337" lon="-3.10658">
        <ele>182.79</ele>
        <time>2017-04-09T13:32:39Z</time>
      </trkpt>
      <trkpt lat="48.20336" lon="-3.10679">
        <ele>183.27</ele>
        <time>2017-04-09T13:32:51Z</time>
      </trkpt>
      <trkpt lat="48.20334" lon="-3.10699">
        <ele>183.27</ele>
        <time>2017-04-09T13:33:09Z</time>
      </trkpt>
      <trkpt lat="48.20328" lon="-3.10715">
        <ele>184.71</ele>
        <time>2017-04-09T13:33:25Z</time>
      </trkpt>
      <trkpt lat="48.20324" lon="-3.10744">
        <ele>184.71</ele>
        <time>2017-04-09T13:33:40Z</time>
      </trkpt>
      <trkpt lat="48.20319" lon="-3.10765">
        <ele>185.67</ele>
        <time>2017-04-09T13:33:55Z</time>
      </trkpt>
      <trkpt lat="48.20312" lon="-3.10786">
        <ele>185.67</ele>
        <time>2017-04-09T13:34:10Z</time>
      </trkpt>
      <trkpt lat="48.20312" lon="-3.10797">
        <ele>185.67</ele>
        <time>2017-04-09T13:34:30Z</time>
      </trkpt>
      <trkpt lat="48.20311" lon="-3.10809">
        <ele>186.15</ele>
        <time>2017-04-09T13:34:46Z</time>
      </trkpt>
      <trkpt lat="48.2031" lon="-3.10824">
        <ele>186.63</ele>
        <time>2017-04-09T13:35:00Z</time>
      </trkpt>
      <trkpt lat="48.2031" lon="-3.10849">
        <ele>186.63</ele>
        <time>2017-04-09T13:35:14Z</time>
      </trkpt>
      <trkpt lat="48.20307" lon="-3.10855">
        <ele>186.63</ele>
        <time>2017-04-09T13:35:36Z</time>
      </trkpt>
      <trkpt lat="48.20308" lon="-3.10859">
        <ele>186.15</ele>
        <time>2017-04-09T13:35:55Z</time>
      </trkpt>
      <trkpt lat="48.20309" lon="-3.10864">
        <ele>186.15</ele>
        <time>2017-04-09T13:36:16Z</time>
      </trkpt>
      <trkpt lat="48.20313" lon="-3.10862">
        <ele>186.15</ele>
        <time>2017-04-09T13:36:42Z</time>
      </trkpt>
      <trkpt lat="48.20312" lon="-3.10863">
        <ele>186.63</ele>
        <time>2017-04-09T13:37:00Z</time>
      </trkpt>
      <trkpt lat="48.20313" lon="-3.10862">
        <ele>186.15</ele>
        <time>2017-04-09T13:37:16Z</time>
      </trkpt>
      <trkpt lat="48.20314" lon="-3.10864">
        <ele>187.11</ele>
        <time>2017-04-09T13:37:38Z</time>
      </trkpt>
      <trkpt lat="48.20313" lon="-3.10862">
        <ele>186.15</ele>
        <time>2017-04-09T13:38:07Z</time>
      </trkpt>
      <trkpt lat="48.20313" lon="-3.10864">
        <ele>186.63</ele>
        <time>2017-04-09T13:38:39Z</time>
      </trkpt>
      <trkpt lat="48.20312" lon="-3.10863">
        <ele>186.63</ele>
        <time>2017-04-09T13:39:07Z</time>
      </trkpt>
      <trkpt lat="48.20311" lon="-3.10861">
        <ele>186.15</ele>
        <time>2017-04-09T13:39:41Z</time>
      </trkpt>
      <trkpt lat="48.20312" lon="-3.10863">
        <ele>186.15</ele>
        <time>2017-04-09T13:39:57Z</time>
      </trkpt>
      <trkpt lat="48.20312" lon="-3.1088">
        <ele>186.15</ele>
        <time>2017-04-09T13:40:13Z</time>
      </trkpt>
      <trkpt lat="48.2031" lon="-3.10897">
        <ele>185.67</ele>
        <time>2017-04-09T13:40:25Z</time>
      </trkpt>
      <trkpt lat="48.20308" lon="-3.10907">
        <ele>185.67</ele>
        <time>2017-04-09T13:40:32Z</time>
      </trkpt>
      <trkpt lat="48.20303" lon="-3.1093">
        <ele>185.19</ele>
        <time>2017-04-09T13:40:48Z</time>
      </trkpt>
      <trkpt lat="48.20297" lon="-3.10945">
        <ele>185.19</ele>
        <time>2017-04-09T13:41:00Z</time>
      </trkpt>
      <trkpt lat="48.20291" lon="-3.1095">
        <ele>185.19</ele>
        <time>2017-04-09T13:41:10Z</time>
      </trkpt>
      <trkpt lat="48.20289" lon="-3.10952">
        <ele>185.19</ele>
        <time>2017-04-09T13:41:12Z</time>
      </trkpt>
      <trkpt lat="48.20282" lon="-3.10963">
        <ele>185.19</ele>
        <time>2017-04-09T13:41:20Z</time>
      </trkpt>
      <trkpt lat="48.2028" lon="-3.10982">
        <ele>184.23</ele>
        <time>2017-04-09T13:41:34Z</time>
      </trkpt>
      <trkpt lat="48.20279" lon="-3.10987">
        <ele>183.75</ele>
        <time>2017-04-09T13:41:37Z</time>
      </trkpt>
      <trkpt lat="48.20274" lon="-3.11006">
        <ele>183.27</ele>
        <time>2017-04-09T13:41:50Z</time>
      </trkpt>
      <trkpt lat="48.20271" lon="-3.11013">
        <ele>183.27</ele>
        <time>2017-04-09T13:41:55Z</time>
      </trkpt>
      <trkpt lat="48.20263" lon="-3.11033">
        <ele>182.79</ele>
        <time>2017-04-09T13:42:08Z</time>
      </trkpt>
      <trkpt lat="48.2026" lon="-3.11052">
        <ele>181.83</ele>
        <time>2017-04-09T13:42:20Z</time>
      </trkpt>
      <trkpt lat="48.20256" lon="-3.11069">
        <ele>181.35</ele>
        <time>2017-04-09T13:42:31Z</time>
      </trkpt>
      <trkpt lat="48.20254" lon="-3.11082">
        <ele>180.87</ele>
        <time>2017-04-09T13:42:42Z</time>
      </trkpt>
      <trkpt lat="48.20254" lon="-3.11085">
        <ele>180.87</ele>
        <time>2017-04-09T13:42:44Z</time>
      </trkpt>
      <trkpt lat="48.2025" lon="-3.11096">
        <ele>180.38</ele>
        <time>2017-04-09T13:42:51Z</time>
      </trkpt>
      <trkpt lat="48.2025" lon="-3.11107">
        <ele>180.38</ele>
        <time>2017-04-09T13:42:57Z</time>
      </trkpt>
      <trkpt lat="48.20251" lon="-3.11122">
        <ele>179.9</ele>
        <time>2017-04-09T13:43:07Z</time>
      </trkpt>
      <trkpt lat="48.20252" lon="-3.11148">
        <ele>178.94</ele>
        <time>2017-04-09T13:43:21Z</time>
      </trkpt>
      <trkpt lat="48.2025" lon="-3.11159">
        <ele>178.94</ele>
        <time>2017-04-09T13:43:28Z</time>
      </trkpt>
      <trkpt lat="48.20249" lon="-3.11185">
        <ele>178.46</ele>
        <time>2017-04-09T13:43:40Z</time>
      </trkpt>
      <trkpt lat="48.20247" lon="-3.11205">
        <ele>177.98</ele>
        <time>2017-04-09T13:43:54Z</time>
      </trkpt>
      <trkpt lat="48.20246" lon="-3.11221">
        <ele>177.5</ele>
        <time>2017-04-09T13:44:04Z</time>
      </trkpt>
      <trkpt lat="48.20244" lon="-3.11232">
        <ele>177.5</ele>
        <time>2017-04-09T13:44:14Z</time>
      </trkpt>
      <trkpt lat="48.20243" lon="-3.11252">
        <ele>176.54</ele>
        <time>2017-04-09T13:44:26Z</time>
      </trkpt>
      <trkpt lat="48.20242" lon="-3.11255">
        <ele>176.06</ele>
        <time>2017-04-09T13:44:44Z</time>
      </trkpt>
      <trkpt lat="48.20247" lon="-3.1127">
        <ele>175.1</ele>
        <time>2017-04-09T13:44:57Z</time>
      </trkpt>
      <trkpt lat="48.20252" lon="-3.11281">
        <ele>174.14</ele>
        <time>2017-04-09T13:45:06Z</time>
      </trkpt>
      <trkpt lat="48.20258" lon="-3.113">
        <ele>172.69</ele>
        <time>2017-04-09T13:45:20Z</time>
      </trkpt>
      <trkpt lat="48.20259" lon="-3.11324">
        <ele>171.73</ele>
        <time>2017-04-09T13:45:34Z</time>
      </trkpt>
      <trkpt lat="48.2026" lon="-3.1133">
        <ele>172.21</ele>
        <time>2017-04-09T13:45:39Z</time>
      </trkpt>
      <trkpt lat="48.20261" lon="-3.1136">
        <ele>169.81</ele>
        <time>2017-04-09T13:45:53Z</time>
      </trkpt>
      <trkpt lat="48.20265" lon="-3.1138">
        <ele>168.37</ele>
        <time>2017-04-09T13:46:06Z</time>
      </trkpt>
      <trkpt lat="48.20266" lon="-3.11384">
        <ele>167.89</ele>
        <time>2017-04-09T13:46:09Z</time>
      </trkpt>
      <trkpt lat="48.20265" lon="-3.11404">
        <ele>166.93</ele>
        <time>2017-04-09T13:46:24Z</time>
      </trkpt>
      <trkpt lat="48.20264" lon="-3.11407">
        <ele>166.93</ele>
        <time>2017-04-09T13:46:26Z</time>
      </trkpt>
      <trkpt lat="48.20261" lon="-3.11419">
        <ele>165.96</ele>
        <time>2017-04-09T13:46:37Z</time>
      </trkpt>
      <trkpt lat="48.20265" lon="-3.11424">
        <ele>165.96</ele>
        <time>2017-04-09T13:47:01Z</time>
      </trkpt>
      <trkpt lat="48.20273" lon="-3.11427">
        <ele>164.52</ele>
        <time>2017-04-09T13:47:16Z</time>
      </trkpt>
      <trkpt lat="48.20288" lon="-3.11424">
        <ele>164.04</ele>
        <time>2017-04-09T13:47:31Z</time>
      </trkpt>
      <trkpt lat="48.20308" lon="-3.1142">
        <ele>163.08</ele>
        <time>2017-04-09T13:47:45Z</time>
      </trkpt>
      <trkpt lat="48.20314" lon="-3.11416">
        <ele>162.6</ele>
        <time>2017-04-09T13:48:01Z</time>
      </trkpt>
      <trkpt lat="48.20324" lon="-3.1141">
        <ele>162.6</ele>
        <time>2017-04-09T13:48:16Z</time>
      </trkpt>
      <trkpt lat="48.20329" lon="-3.11408">
        <ele>162.12</ele>
        <time>2017-04-09T13:48:22Z</time>
      </trkpt>
      <trkpt lat="48.20341" lon="-3.11399">
        <ele>161.64</ele>
        <time>2017-04-09T13:48:38Z</time>
      </trkpt>
      <trkpt lat="48.20352" lon="-3.11391">
        <ele>161.16</ele>
        <time>2017-04-09T13:48:58Z</time>
      </trkpt>
      <trkpt lat="48.20372" lon="-3.11385">
        <ele>159.24</ele>
        <time>2017-04-09T13:49:14Z</time>
      </trkpt>
      <trkpt lat="48.20383" lon="-3.11365">
        <ele>157.79</ele>
        <time>2017-04-09T13:49:29Z</time>
      </trkpt>
      <trkpt lat="48.20381" lon="-3.11351">
        <ele>157.31</ele>
        <time>2017-04-09T13:49:43Z</time>
      </trkpt>
      <trkpt lat="48.20379" lon="-3.11336">
        <ele>154.91</ele>
        <time>2017-04-09T13:49:57Z</time>
      </trkpt>
      <trkpt lat="48.20382" lon="-3.11306">
        <ele>152.99</ele>
        <time>2017-04-09T13:50:14Z</time>
      </trkpt>
      <trkpt lat="48.20384" lon="-3.11284">
        <ele>151.06</ele>
        <time>2017-04-09T13:50:31Z</time>
      </trkpt>
      <trkpt lat="48.20381" lon="-3.11266">
        <ele>149.14</ele>
        <time>2017-04-09T13:50:43Z</time>
      </trkpt>
      <trkpt lat="48.2039" lon="-3.11249">
        <ele>147.7</ele>
        <time>2017-04-09T13:50:55Z</time>
      </trkpt>
      <trkpt lat="48.204" lon="-3.11243">
        <ele>145.3</ele>
        <time>2017-04-09T13:51:10Z</time>
      </trkpt>
      <trkpt lat="48.20418" lon="-3.11233">
        <ele>142.41</ele>
        <time>2017-04-09T13:51:28Z</time>
      </trkpt>
      <trkpt lat="48.20426" lon="-3.11223">
        <ele>140.49</ele>
        <time>2017-04-09T13:51:44Z</time>
      </trkpt>
      <trkpt lat="48.20433" lon="-3.11214">
        <ele>138.57</ele>
        <time>2017-04-09T13:51:57Z</time>
      </trkpt>
      <trkpt lat="48.20441" lon="-3.11202">
        <ele>136.16</ele>
        <time>2017-04-09T13:52:12Z</time>
      </trkpt>
      <trkpt lat="48.20442" lon="-3.11203">
        <ele>136.64</ele>
        <time>2017-04-09T13:52:37Z</time>
      </trkpt>
      <trkpt lat="48.20441" lon="-3.11204">
        <ele>136.64</ele>
        <time>2017-04-09T13:53:03Z</time>
      </trkpt>
      <trkpt lat="48.20439" lon="-3.11204">
        <ele>136.64</ele>
        <time>2017-04-09T13:53:31Z</time>
      </trkpt>
      <trkpt lat="48.20441" lon="-3.112">
        <ele>136.16</ele>
        <time>2017-04-09T13:53:54Z</time>
      </trkpt>
      <trkpt lat="48.20443" lon="-3.11196">
        <ele>135.68</ele>
        <time>2017-04-09T13:54:13Z</time>
      </trkpt>
      <trkpt lat="48.20455" lon="-3.11194">
        <ele>133.28</ele>
        <time>2017-04-09T13:54:29Z</time>
      </trkpt>
      <trkpt lat="48.20465" lon="-3.11199">
        <ele>130.88</ele>
        <time>2017-04-09T13:54:42Z</time>
      </trkpt>
      <trkpt lat="48.20467" lon="-3.11203">
        <ele>129.92</ele>
        <time>2017-04-09T13:54:47Z</time>
      </trkpt>
      <trkpt lat="48.20477" lon="-3.11223">
        <ele>128.47</ele>
        <time>2017-04-09T13:54:58Z</time>
      </trkpt>
      <trkpt lat="48.20488" lon="-3.11242">
        <ele>127.51</ele>
        <time>2017-04-09T13:55:11Z</time>
      </trkpt>
      <trkpt lat="48.20498" lon="-3.11238">
        <ele>125.11</ele>
        <time>2017-04-09T13:55:26Z</time>
      </trkpt>
      <trkpt lat="48.20504" lon="-3.11234">
        <ele>121.74</ele>
        <time>2017-04-09T13:55:39Z</time>
      </trkpt>
      <trkpt lat="48.20509" lon="-3.11222">
        <ele>120.3</ele>
        <time>2017-04-09T13:55:53Z</time>
      </trkpt>
      <trkpt lat="48.20509" lon="-3.11218">
        <ele>119.82</ele>
        <time>2017-04-09T13:56:09Z</time>
      </trkpt>
      <trkpt lat="48.2051" lon="-3.11215">
        <ele>119.82</ele>
        <time>2017-04-09T13:56:28Z</time>
      </trkpt>
      <trkpt lat="48.20509" lon="-3.11212">
        <ele>119.82</ele>
        <time>2017-04-09T13:56:48Z</time>
      </trkpt>
      <trkpt lat="48.20509" lon="-3.11206">
        <ele>119.82</ele>
        <time>2017-04-09T13:57:07Z</time>
      </trkpt>
      <trkpt lat="48.20507" lon="-3.11181">
        <ele>119.82</ele>
        <time>2017-04-09T13:57:21Z</time>
      </trkpt>
      <trkpt lat="48.20504" lon="-3.11152">
        <ele>120.78</ele>
        <time>2017-04-09T13:57:36Z</time>
      </trkpt>
      <trkpt lat="48.20501" lon="-3.11133">
        <ele>120.78</ele>
        <time>2017-04-09T13:57:50Z</time>
      </trkpt>
      <trkpt lat="48.205" lon="-3.11126">
        <ele>120.78</ele>
        <time>2017-04-09T13:57:57Z</time>
      </trkpt>
      <trkpt lat="48.20498" lon="-3.11114">
        <ele>120.3</ele>
        <time>2017-04-09T13:58:07Z</time>
      </trkpt>
      <trkpt lat="48.20498" lon="-3.11093">
        <ele>120.3</ele>
        <time>2017-04-09T13:58:22Z</time>
      </trkpt>
      <trkpt lat="48.20506" lon="-3.11063">
        <ele>120.3</ele>
        <time>2017-04-09T13:58:38Z</time>
      </trkpt>
      <trkpt lat="48.20519" lon="-3.11043">
        <ele>119.34</ele>
        <time>2017-04-09T13:58:53Z</time>
      </trkpt>
      <trkpt lat="48.20522" lon="-3.11041">
        <ele>119.34</ele>
        <time>2017-04-09T13:59:12Z</time>
      </trkpt>
      <trkpt lat="48.20526" lon="-3.11036">
        <ele>118.86</ele>
        <time>2017-04-09T13:59:19Z</time>
      </trkpt>
      <trkpt lat="48.20543" lon="-3.11017">
        <ele>118.86</ele>
        <time>2017-04-09T13:59:33Z</time>
      </trkpt>
      <trkpt lat="48.20549" lon="-3.11008">
        <ele>119.34</ele>
        <time>2017-04-09T13:59:47Z</time>
      </trkpt>
      <trkpt lat="48.20562" lon="-3.10986">
        <ele>119.82</ele>
        <time>2017-04-09T13:59:59Z</time>
      </trkpt>
      <trkpt lat="48.20572" lon="-3.10973">
        <ele>120.3</ele>
        <time>2017-04-09T14:00:10Z</time>
      </trkpt>
      <trkpt lat="48.20581" lon="-3.10968">
        <ele>120.3</ele>
        <time>2017-04-09T14:00:19Z</time>
      </trkpt>
      <trkpt lat="48.20589" lon="-3.10958">
        <ele>121.26</ele>
        <time>2017-04-09T14:00:31Z</time>
      </trkpt>
      <trkpt lat="48.20597" lon="-3.10954">
        <ele>120.78</ele>
        <time>2017-04-09T14:00:42Z</time>
      </trkpt>
      <trkpt lat="48.20607" lon="-3.10952">
        <ele>119.82</ele>
        <time>2017-04-09T14:00:53Z</time>
      </trkpt>
      <trkpt lat="48.20618" lon="-3.10948">
        <ele>119.34</ele>
        <time>2017-04-09T14:01:04Z</time>
      </trkpt>
      <trkpt lat="48.2063" lon="-3.10939">
        <ele>118.86</ele>
        <time>2017-04-09T14:01:16Z</time>
      </trkpt>
      <trkpt lat="48.20637" lon="-3.10934">
        <ele>118.38</ele>
        <time>2017-04-09T14:01:28Z</time>
      </trkpt>
      <trkpt lat="48.20651" lon="-3.10924">
        <ele>118.86</ele>
        <time>2017-04-09T14:01:40Z</time>
      </trkpt>
      <trkpt lat="48.2067" lon="-3.10918">
        <ele>118.38</ele>
        <time>2017-04-09T14:01:54Z</time>
      </trkpt>
      <trkpt lat="48.20679" lon="-3.10934">
        <ele>118.86</ele>
        <time>2017-04-09T14:02:07Z</time>
      </trkpt>
      <trkpt lat="48.20682" lon="-3.10945">
        <ele>118.86</ele>
        <time>2017-04-09T14:02:24Z</time>
      </trkpt>
      <trkpt lat="48.20684" lon="-3.10948">
        <ele>118.86</ele>
        <time>2017-04-09T14:02:36Z</time>
      </trkpt>
      <trkpt lat="48.20687" lon="-3.10965">
        <ele>119.34</ele>
        <time>2017-04-09T14:02:50Z</time>
      </trkpt>
      <trkpt lat="48.20692" lon="-3.10982">
        <ele>119.34</ele>
        <time>2017-04-09T14:03:04Z</time>
      </trkpt>
      <trkpt lat="48.20695" lon="-3.10986">
        <ele>117.42</ele>
        <time>2017-04-09T14:03:23Z</time>
      </trkpt>
      <trkpt lat="48.20697" lon="-3.10994">
        <ele>117.9</ele>
        <time>2017-04-09T14:03:29Z</time>
      </trkpt>
      <trkpt lat="48.207" lon="-3.10996">
        <ele>117.9</ele>
        <time>2017-04-09T14:03:34Z</time>
      </trkpt>
      <trkpt lat="48.20704" lon="-3.10994">
        <ele>117.42</ele>
        <time>2017-04-09T14:03:38Z</time>
      </trkpt>
      <trkpt lat="48.20716" lon="-3.10991">
        <ele>117.9</ele>
        <time>2017-04-09T14:03:50Z</time>
      </trkpt>
      <trkpt lat="48.20718" lon="-3.10992">
        <ele>118.38</ele>
        <time>2017-04-09T14:03:52Z</time>
      </trkpt>
      <trkpt lat="48.20735" lon="-3.10987">
        <ele>116.94</ele>
        <time>2017-04-09T14:04:07Z</time>
      </trkpt>
      <trkpt lat="48.20744" lon="-3.10977">
        <ele>116.94</ele>
        <time>2017-04-09T14:04:20Z</time>
      </trkpt>
      <trkpt lat="48.20743" lon="-3.10976">
        <ele>115.98</ele>
        <time>2017-04-09T14:04:32Z</time>
      </trkpt>
      <trkpt lat="48.20747" lon="-3.10971">
        <ele>116.94</ele>
        <time>2017-04-09T14:04:51Z</time>
      </trkpt>
      <trkpt lat="48.20747" lon="-3.1097">
        <ele>116.94</ele>
        <time>2017-04-09T14:04:54Z</time>
      </trkpt>
      <trkpt lat="48.20746" lon="-3.10973">
        <ele>117.42</ele>
        <time>2017-04-09T14:05:08Z</time>
      </trkpt>
      <trkpt lat="48.20746" lon="-3.10972">
        <ele>116.94</ele>
        <time>2017-04-09T14:05:33Z</time>
      </trkpt>
      <trkpt lat="48.20747" lon="-3.10974">
        <ele>117.42</ele>
        <time>2017-04-09T14:05:52Z</time>
      </trkpt>
      <trkpt lat="48.20747" lon="-3.10978">
        <ele>116.94</ele>
        <time>2017-04-09T14:06:06Z</time>
      </trkpt>
      <trkpt lat="48.20745" lon="-3.10982">
        <ele>117.42</ele>
        <time>2017-04-09T14:06:15Z</time>
      </trkpt>
      <trkpt lat="48.20746" lon="-3.10988">
        <ele>117.9</ele>
        <time>2017-04-09T14:06:20Z</time>
      </trkpt>
      <trkpt lat="48.20752" lon="-3.1101">
        <ele>118.86</ele>
        <time>2017-04-09T14:06:33Z</time>
      </trkpt>
      <trkpt lat="48.20757" lon="-3.11015">
        <ele>118.86</ele>
        <time>2017-04-09T14:06:47Z</time>
      </trkpt>
      <trkpt lat="48.20757" lon="-3.11015">
        <ele>118.86</ele>
        <time>2017-04-09T14:06:55Z</time>
      </trkpt>
      <trkpt lat="48.20762" lon="-3.11005">
        <ele>118.38</ele>
        <time>2017-04-09T14:07:05Z</time>
      </trkpt>
      <trkpt lat="48.20753" lon="-3.11002">
        <ele>117.9</ele>
        <time>2017-04-09T14:07:23Z</time>
      </trkpt>
      <trkpt lat="48.20754" lon="-3.11005">
        <ele>117.9</ele>
        <time>2017-04-09T14:07:42Z</time>
      </trkpt>
      <trkpt lat="48.20755" lon="-3.11005">
        <ele>117.9</ele>
        <time>2017-04-09T14:07:57Z</time>
      </trkpt>
      <trkpt lat="48.20751" lon="-3.10999">
        <ele>117.9</ele>
        <time>2017-04-09T14:08:11Z</time>
      </trkpt>
      <trkpt lat="48.20749" lon="-3.10987">
        <ele>117.42</ele>
        <time>2017-04-09T14:08:23Z</time>
      </trkpt>
      <trkpt lat="48.20749" lon="-3.10975">
        <ele>117.42</ele>
        <time>2017-04-09T14:08:38Z</time>
      </trkpt>
      <trkpt lat="48.20749" lon="-3.10975">
        <ele>117.42</ele>
        <time>2017-04-09T14:08:55Z</time>
      </trkpt>
      <trkpt lat="48.2075" lon="-3.10977">
        <ele>116.46</ele>
        <time>2017-04-09T14:09:04Z</time>
      </trkpt>
      <trkpt lat="48.20751" lon="-3.10972">
        <ele>115.98</ele>
        <time>2017-04-09T14:09:15Z</time>
      </trkpt>
      <trkpt lat="48.2075" lon="-3.10971">
        <ele>116.94</ele>
        <time>2017-04-09T14:09:39Z</time>
      </trkpt>
      <trkpt lat="48.2075" lon="-3.10971">
        <ele>116.94</ele>
        <time>2017-04-09T14:10:03Z</time>
      </trkpt>
    </trkseg>
  </trk>
</gpx>